<?xml version="1.0" encoding="UTF-8" standalone="no" ?>
<gpx xmlns="http://www.topografix.com/GPX/1/1" xmlns:xsi="http://www.w3.org/2001/XMLSchema-instance" xsi:schemaLocation="http://www.topografix.com/GPX/1/1 http://www.topografix.com/GPX/1/1/gpx.xsd" version="1.1" creator="VisuGPX - https://www.visugpx.com">
  <metadata>
    <name>promenade Rignac</name>
    <desc><![CDATA[de Rignac à Rignac par Varagne et Le Coustalou]]></desc>
  </metadata>
  <wpt lat="44.8049" lon="1.69497">
    <ele>334.7</ele>
    <name><![CDATA[18/09/2015 17:10 (départ)]]></name>
  </wpt>
  <wpt lat="44.80498" lon="1.69501">
    <ele>329.7</ele>
    <name><![CDATA[18/09/2015 17:10 (fin)]]></name>
    <desc><![CDATA[Créé par Mes parcours sur Android  Nom : 18/09/2015 17:10 Type d'activité : automobile Description : - Distance totale : 4,49 km (2,8 mi) Durée totale : 2:14:05 Durée du déplacement : 1:51:42 Vitesse moyenne : 2,01 km/h (1,2 mi/h) Vitesse moyenne de déplacement : 2,41 km/h (1,5 mi/h) Vitesse max. : 7,82 km/h (4,9 mi/h) Vitesse moyenne : 29:53 min/km (48:05 min/mi) Allure moyenne : 24:53 min/km (40:03 min/mi) Vitesse maximale : 7:40 min/km (12:21 min/mi) Élévation max. : 426 m (1398 pi) Élévation min. : 324 m (1064 pi) Dénivelé : 111 m (365 pi) Inclinaison max. : 15 % Inclinaison min. : -9 % Date d'enregistrement : 18/09/2015 17:10]]></desc>
  </wpt>
  <trk>
    <name><![CDATA[18/09/2015 17:10]]></name>
    <trkseg>
      <trkpt lat="44.8049" lon="1.69497">
        <ele>334.679534912</ele>
        <time>2015-09-18T15:10:51.606Z</time>
      </trkpt>
      <trkpt lat="44.80491" lon="1.69507">
        <ele>330.277282715</ele>
        <time>2015-09-18T15:13:45.54Z</time>
      </trkpt>
      <trkpt lat="44.80507" lon="1.69502">
        <ele>330.179718018</ele>
        <time>2015-09-18T15:13:45.655Z</time>
      </trkpt>
      <trkpt lat="44.80508" lon="1.695">
        <ele>327.828521729</ele>
        <time>2015-09-18T15:13:56.822Z</time>
      </trkpt>
      <trkpt lat="44.80515" lon="1.69494">
        <ele>327.615997314</ele>
        <time>2015-09-18T15:13:57.82Z</time>
      </trkpt>
      <trkpt lat="44.80523" lon="1.69495">
        <ele>326.391723633</ele>
        <time>2015-09-18T15:14:03.771Z</time>
      </trkpt>
      <trkpt lat="44.80525" lon="1.69495">
        <ele>326.244171143</ele>
        <time>2015-09-18T15:14:04.747Z</time>
      </trkpt>
      <trkpt lat="44.80533" lon="1.69489">
        <ele>326.161560059</ele>
        <time>2015-09-18T15:14:13.918Z</time>
      </trkpt>
      <trkpt lat="44.80533" lon="1.69488">
        <ele>326.156341553</ele>
        <time>2015-09-18T15:14:14.664Z</time>
      </trkpt>
      <trkpt lat="44.80541" lon="1.69486">
        <ele>326.659332275</ele>
        <time>2015-09-18T15:14:21.664Z</time>
      </trkpt>
      <trkpt lat="44.80542" lon="1.69486">
        <ele>326.69418335</ele>
        <time>2015-09-18T15:14:22.717Z</time>
      </trkpt>
      <trkpt lat="44.8055" lon="1.69481">
        <ele>325.873382568</ele>
        <time>2015-09-18T15:14:37.772Z</time>
      </trkpt>
      <trkpt lat="44.80551" lon="1.69481">
        <ele>325.798675537</ele>
        <time>2015-09-18T15:14:38.72Z</time>
      </trkpt>
      <trkpt lat="44.80555" lon="1.69471">
        <ele>325.125183105</ele>
        <time>2015-09-18T15:14:49.797Z</time>
      </trkpt>
      <trkpt lat="44.80555" lon="1.69469">
        <ele>324.938293457</ele>
        <time>2015-09-18T15:14:50.711Z</time>
      </trkpt>
      <trkpt lat="44.8056" lon="1.69459">
        <ele>323.409851074</ele>
        <time>2015-09-18T15:15:00.849Z</time>
      </trkpt>
      <trkpt lat="44.80561" lon="1.69458">
        <ele>323.322235107</ele>
        <time>2015-09-18T15:15:01.66Z</time>
      </trkpt>
      <trkpt lat="44.80565" lon="1.69449">
        <ele>322.63192749</ele>
        <time>2015-09-18T15:15:07.772Z</time>
      </trkpt>
      <trkpt lat="44.80566" lon="1.69448">
        <ele>322.547180176</ele>
        <time>2015-09-18T15:15:08.707Z</time>
      </trkpt>
      <trkpt lat="44.80573" lon="1.6944">
        <ele>322.424926758</ele>
        <time>2015-09-18T15:15:17.013Z</time>
      </trkpt>
      <trkpt lat="44.80574" lon="1.69439">
        <ele>322.400512695</ele>
        <time>2015-09-18T15:15:17.729Z</time>
      </trkpt>
      <trkpt lat="44.80579" lon="1.6943">
        <ele>322.593109131</ele>
        <time>2015-09-18T15:15:27.317Z</time>
      </trkpt>
      <trkpt lat="44.8058" lon="1.69428">
        <ele>322.665374756</ele>
        <time>2015-09-18T15:15:27.722Z</time>
      </trkpt>
      <trkpt lat="44.80584" lon="1.69417">
        <ele>322.534484863</ele>
        <time>2015-09-18T15:15:37.403Z</time>
      </trkpt>
      <trkpt lat="44.80584" lon="1.69416">
        <ele>322.571289062</ele>
        <time>2015-09-18T15:15:37.769Z</time>
      </trkpt>
      <trkpt lat="44.80591" lon="1.69408">
        <ele>323.329711914</ele>
        <time>2015-09-18T15:15:49.791Z</time>
      </trkpt>
      <trkpt lat="44.80592" lon="1.69406">
        <ele>323.410339355</ele>
        <time>2015-09-18T15:15:50.678Z</time>
      </trkpt>
      <trkpt lat="44.80594" lon="1.69394">
        <ele>324.424499512</ele>
        <time>2015-09-18T15:15:58.817Z</time>
      </trkpt>
      <trkpt lat="44.80594" lon="1.69392">
        <ele>324.523223877</ele>
        <time>2015-09-18T15:15:59.736Z</time>
      </trkpt>
      <trkpt lat="44.80596" lon="1.6938">
        <ele>325.431365967</ele>
        <time>2015-09-18T15:16:12.775Z</time>
      </trkpt>
      <trkpt lat="44.80596" lon="1.6938">
        <ele>325.429260254</ele>
        <time>2015-09-18T15:16:13.725Z</time>
      </trkpt>
      <trkpt lat="44.80598" lon="1.69368">
        <ele>326.201538086</ele>
        <time>2015-09-18T15:16:22.83Z</time>
      </trkpt>
      <trkpt lat="44.80599" lon="1.69367">
        <ele>326.327148438</ele>
        <time>2015-09-18T15:16:23.722Z</time>
      </trkpt>
      <trkpt lat="44.80598" lon="1.69356">
        <ele>326.826202393</ele>
        <time>2015-09-18T15:16:35.893Z</time>
      </trkpt>
      <trkpt lat="44.80599" lon="1.69354">
        <ele>326.768463135</ele>
        <time>2015-09-18T15:16:36.661Z</time>
      </trkpt>
      <trkpt lat="44.80599" lon="1.69344">
        <ele>326.505859375</ele>
        <time>2015-09-18T15:16:45.889Z</time>
      </trkpt>
      <trkpt lat="44.80599" lon="1.6934">
        <ele>326.519805908</ele>
        <time>2015-09-18T15:16:46.872Z</time>
      </trkpt>
      <trkpt lat="44.80597" lon="1.69329">
        <ele>326.330932617</ele>
        <time>2015-09-18T15:16:55.774Z</time>
      </trkpt>
      <trkpt lat="44.80597" lon="1.69327">
        <ele>326.350067139</ele>
        <time>2015-09-18T15:16:56.708Z</time>
      </trkpt>
      <trkpt lat="44.80595" lon="1.69316">
        <ele>326.412017822</ele>
        <time>2015-09-18T15:17:05.78Z</time>
      </trkpt>
      <trkpt lat="44.80595" lon="1.69314">
        <ele>326.528259277</ele>
        <time>2015-09-18T15:17:06.727Z</time>
      </trkpt>
      <trkpt lat="44.80596" lon="1.69302">
        <ele>327.589813232</ele>
        <time>2015-09-18T15:17:14.852Z</time>
      </trkpt>
      <trkpt lat="44.80596" lon="1.69301">
        <ele>327.697937012</ele>
        <time>2015-09-18T15:17:15.668Z</time>
      </trkpt>
      <trkpt lat="44.80599" lon="1.69291">
        <ele>329.071289062</ele>
        <time>2015-09-18T15:17:23.779Z</time>
      </trkpt>
      <trkpt lat="44.806" lon="1.69289">
        <ele>329.270812988</ele>
        <time>2015-09-18T15:17:24.704Z</time>
      </trkpt>
      <trkpt lat="44.80601" lon="1.69279">
        <ele>330.706756592</ele>
        <time>2015-09-18T15:17:35.789Z</time>
      </trkpt>
      <trkpt lat="44.806" lon="1.69276">
        <ele>330.911651611</ele>
        <time>2015-09-18T15:17:36.731Z</time>
      </trkpt>
      <trkpt lat="44.80602" lon="1.69265">
        <ele>333.102996826</ele>
        <time>2015-09-18T15:17:51.756Z</time>
      </trkpt>
      <trkpt lat="44.80603" lon="1.69264">
        <ele>333.33026123</ele>
        <time>2015-09-18T15:17:52.83Z</time>
      </trkpt>
      <trkpt lat="44.80609" lon="1.69257">
        <ele>334.634368896</ele>
        <time>2015-09-18T15:17:59.858Z</time>
      </trkpt>
      <trkpt lat="44.8061" lon="1.69255">
        <ele>334.758850098</ele>
        <time>2015-09-18T15:18:00.667Z</time>
      </trkpt>
      <trkpt lat="44.80614" lon="1.69245">
        <ele>335.988220215</ele>
        <time>2015-09-18T15:18:08.804Z</time>
      </trkpt>
      <trkpt lat="44.80615" lon="1.69244">
        <ele>336.20690918</ele>
        <time>2015-09-18T15:18:09.713Z</time>
      </trkpt>
      <trkpt lat="44.80622" lon="1.69237">
        <ele>337.845031738</ele>
        <time>2015-09-18T15:18:19.868Z</time>
      </trkpt>
      <trkpt lat="44.80623" lon="1.69236">
        <ele>338.008392334</ele>
        <time>2015-09-18T15:18:20.735Z</time>
      </trkpt>
      <trkpt lat="44.80631" lon="1.69231">
        <ele>339.233703613</ele>
        <time>2015-09-18T15:18:27.734Z</time>
      </trkpt>
      <trkpt lat="44.80632" lon="1.69231">
        <ele>339.393554688</ele>
        <time>2015-09-18T15:18:28.713Z</time>
      </trkpt>
      <trkpt lat="44.80638" lon="1.69223">
        <ele>341.412872314</ele>
        <time>2015-09-18T15:18:51.883Z</time>
      </trkpt>
      <trkpt lat="44.80639" lon="1.69222">
        <ele>341.492614746</ele>
        <time>2015-09-18T15:18:52.67Z</time>
      </trkpt>
      <trkpt lat="44.80645" lon="1.69215">
        <ele>341.903045654</ele>
        <time>2015-09-18T15:18:58.838Z</time>
      </trkpt>
      <trkpt lat="44.80646" lon="1.69213">
        <ele>342.048736572</ele>
        <time>2015-09-18T15:18:59.722Z</time>
      </trkpt>
      <trkpt lat="44.80653" lon="1.69205">
        <ele>342.778930664</ele>
        <time>2015-09-18T15:19:06.835Z</time>
      </trkpt>
      <trkpt lat="44.80654" lon="1.69204">
        <ele>342.89440918</ele>
        <time>2015-09-18T15:19:07.773Z</time>
      </trkpt>
      <trkpt lat="44.8066" lon="1.69196">
        <ele>343.631561279</ele>
        <time>2015-09-18T15:19:14.739Z</time>
      </trkpt>
      <trkpt lat="44.80661" lon="1.69195">
        <ele>343.670654297</ele>
        <time>2015-09-18T15:19:15.736Z</time>
      </trkpt>
      <trkpt lat="44.80669" lon="1.69191">
        <ele>344.056518555</ele>
        <time>2015-09-18T15:19:23.828Z</time>
      </trkpt>
      <trkpt lat="44.8067" lon="1.6919">
        <ele>344.065032959</ele>
        <time>2015-09-18T15:19:24.727Z</time>
      </trkpt>
      <trkpt lat="44.80676" lon="1.69184">
        <ele>344.198669434</ele>
        <time>2015-09-18T15:19:31.903Z</time>
      </trkpt>
      <trkpt lat="44.80677" lon="1.69182">
        <ele>344.185668945</ele>
        <time>2015-09-18T15:19:32.731Z</time>
      </trkpt>
      <trkpt lat="44.80682" lon="1.69172">
        <ele>344.318084717</ele>
        <time>2015-09-18T15:19:39.818Z</time>
      </trkpt>
      <trkpt lat="44.80682" lon="1.69171">
        <ele>344.38848877</ele>
        <time>2015-09-18T15:19:40.808Z</time>
      </trkpt>
      <trkpt lat="44.80689" lon="1.69162">
        <ele>344.821075439</ele>
        <time>2015-09-18T15:19:48.837Z</time>
      </trkpt>
      <trkpt lat="44.8069" lon="1.69161">
        <ele>344.865386963</ele>
        <time>2015-09-18T15:19:49.734Z</time>
      </trkpt>
      <trkpt lat="44.80697" lon="1.69156">
        <ele>345.125274658</ele>
        <time>2015-09-18T15:19:54.859Z</time>
      </trkpt>
      <trkpt lat="44.80698" lon="1.69155">
        <ele>345.164123535</ele>
        <time>2015-09-18T15:19:55.751Z</time>
      </trkpt>
      <trkpt lat="44.80705" lon="1.69149">
        <ele>345.29864502</ele>
        <time>2015-09-18T15:20:03.867Z</time>
      </trkpt>
      <trkpt lat="44.80705" lon="1.69146">
        <ele>345.33380127</ele>
        <time>2015-09-18T15:20:04.671Z</time>
      </trkpt>
      <trkpt lat="44.80711" lon="1.69138">
        <ele>345.587310791</ele>
        <time>2015-09-18T15:20:12.77Z</time>
      </trkpt>
      <trkpt lat="44.80712" lon="1.69137">
        <ele>345.657531738</ele>
        <time>2015-09-18T15:20:13.732Z</time>
      </trkpt>
      <trkpt lat="44.80718" lon="1.69129">
        <ele>346.086730957</ele>
        <time>2015-09-18T15:20:20.742Z</time>
      </trkpt>
      <trkpt lat="44.80719" lon="1.69128">
        <ele>346.170776367</ele>
        <time>2015-09-18T15:20:21.743Z</time>
      </trkpt>
      <trkpt lat="44.80726" lon="1.69123">
        <ele>346.481903076</ele>
        <time>2015-09-18T15:20:28.888Z</time>
      </trkpt>
      <trkpt lat="44.80728" lon="1.69122">
        <ele>346.502593994</ele>
        <time>2015-09-18T15:20:29.711Z</time>
      </trkpt>
      <trkpt lat="44.80735" lon="1.69117">
        <ele>346.666595459</ele>
        <time>2015-09-18T15:20:37.833Z</time>
      </trkpt>
      <trkpt lat="44.80736" lon="1.69116">
        <ele>346.672088623</ele>
        <time>2015-09-18T15:20:38.732Z</time>
      </trkpt>
      <trkpt lat="44.80744" lon="1.69109">
        <ele>346.6144104</ele>
        <time>2015-09-18T15:20:46.849Z</time>
      </trkpt>
      <trkpt lat="44.80745" lon="1.69108">
        <ele>346.655029297</ele>
        <time>2015-09-18T15:20:47.754Z</time>
      </trkpt>
      <trkpt lat="44.8075" lon="1.691">
        <ele>347.194458008</ele>
        <time>2015-09-18T15:20:54.828Z</time>
      </trkpt>
      <trkpt lat="44.80752" lon="1.69099">
        <ele>347.251983643</ele>
        <time>2015-09-18T15:20:55.735Z</time>
      </trkpt>
      <trkpt lat="44.80759" lon="1.69094">
        <ele>347.440338135</ele>
        <time>2015-09-18T15:21:01.832Z</time>
      </trkpt>
      <trkpt lat="44.8076" lon="1.69093">
        <ele>347.475189209</ele>
        <time>2015-09-18T15:21:02.74Z</time>
      </trkpt>
      <trkpt lat="44.80767" lon="1.69086">
        <ele>347.564880371</ele>
        <time>2015-09-18T15:21:09.829Z</time>
      </trkpt>
      <trkpt lat="44.80768" lon="1.69085">
        <ele>347.607788086</ele>
        <time>2015-09-18T15:21:10.736Z</time>
      </trkpt>
      <trkpt lat="44.80776" lon="1.69081">
        <ele>347.81640625</ele>
        <time>2015-09-18T15:21:17.827Z</time>
      </trkpt>
      <trkpt lat="44.80777" lon="1.69081">
        <ele>347.823669434</ele>
        <time>2015-09-18T15:21:18.783Z</time>
      </trkpt>
      <trkpt lat="44.80785" lon="1.69079">
        <ele>348.258392334</ele>
        <time>2015-09-18T15:21:24.779Z</time>
      </trkpt>
      <trkpt lat="44.80786" lon="1.69078">
        <ele>348.322906494</ele>
        <time>2015-09-18T15:21:25.718Z</time>
      </trkpt>
      <trkpt lat="44.80794" lon="1.69074">
        <ele>348.728942871</ele>
        <time>2015-09-18T15:21:33.779Z</time>
      </trkpt>
      <trkpt lat="44.80795" lon="1.69074">
        <ele>348.7237854</ele>
        <time>2015-09-18T15:21:34.851Z</time>
      </trkpt>
      <trkpt lat="44.80803" lon="1.69068">
        <ele>348.800292969</ele>
        <time>2015-09-18T15:21:41.83Z</time>
      </trkpt>
      <trkpt lat="44.80804" lon="1.69066">
        <ele>348.842163086</ele>
        <time>2015-09-18T15:21:42.667Z</time>
      </trkpt>
      <trkpt lat="44.80812" lon="1.69062">
        <ele>349.273834229</ele>
        <time>2015-09-18T15:21:50.853Z</time>
      </trkpt>
      <trkpt lat="44.80813" lon="1.69062">
        <ele>349.302459717</ele>
        <time>2015-09-18T15:21:51.716Z</time>
      </trkpt>
      <trkpt lat="44.80821" lon="1.69059">
        <ele>349.562591553</ele>
        <time>2015-09-18T15:21:58.957Z</time>
      </trkpt>
      <trkpt lat="44.80823" lon="1.69059">
        <ele>349.525482178</ele>
        <time>2015-09-18T15:21:59.802Z</time>
      </trkpt>
      <trkpt lat="44.80831" lon="1.6906">
        <ele>349.861785889</ele>
        <time>2015-09-18T15:22:06.924Z</time>
      </trkpt>
      <trkpt lat="44.80832" lon="1.69061">
        <ele>349.974060059</ele>
        <time>2015-09-18T15:22:07.735Z</time>
      </trkpt>
      <trkpt lat="44.8084" lon="1.69062">
        <ele>350.225158691</ele>
        <time>2015-09-18T15:22:14.897Z</time>
      </trkpt>
      <trkpt lat="44.80841" lon="1.69063">
        <ele>350.269287109</ele>
        <time>2015-09-18T15:22:16.4Z</time>
      </trkpt>
      <trkpt lat="44.80849" lon="1.69064">
        <ele>350.294219971</ele>
        <time>2015-09-18T15:22:23.864Z</time>
      </trkpt>
      <trkpt lat="44.80851" lon="1.69065">
        <ele>350.341003418</ele>
        <time>2015-09-18T15:22:24.729Z</time>
      </trkpt>
      <trkpt lat="44.80858" lon="1.69067">
        <ele>350.676330566</ele>
        <time>2015-09-18T15:22:30.798Z</time>
      </trkpt>
      <trkpt lat="44.8086" lon="1.69068">
        <ele>350.727325439</ele>
        <time>2015-09-18T15:22:31.792Z</time>
      </trkpt>
      <trkpt lat="44.80868" lon="1.69071">
        <ele>351.110168457</ele>
        <time>2015-09-18T15:22:38.834Z</time>
      </trkpt>
      <trkpt lat="44.80868" lon="1.69072">
        <ele>351.178527832</ele>
        <time>2015-09-18T15:22:39.73Z</time>
      </trkpt>
      <trkpt lat="44.80876" lon="1.69077">
        <ele>351.469238281</ele>
        <time>2015-09-18T15:22:48.778Z</time>
      </trkpt>
      <trkpt lat="44.80877" lon="1.69078">
        <ele>351.437164307</ele>
        <time>2015-09-18T15:22:49.709Z</time>
      </trkpt>
      <trkpt lat="44.80885" lon="1.69085">
        <ele>351.2762146</ele>
        <time>2015-09-18T15:22:56.78Z</time>
      </trkpt>
      <trkpt lat="44.80886" lon="1.69085">
        <ele>351.214538574</ele>
        <time>2015-09-18T15:22:57.713Z</time>
      </trkpt>
      <trkpt lat="44.80894" lon="1.69086">
        <ele>350.949707031</ele>
        <time>2015-09-18T15:23:03.776Z</time>
      </trkpt>
      <trkpt lat="44.80895" lon="1.69086">
        <ele>351.014068604</ele>
        <time>2015-09-18T15:23:04.706Z</time>
      </trkpt>
      <trkpt lat="44.80903" lon="1.69085">
        <ele>351.266082764</ele>
        <time>2015-09-18T15:23:10.838Z</time>
      </trkpt>
      <trkpt lat="44.80904" lon="1.69086">
        <ele>351.341186523</ele>
        <time>2015-09-18T15:23:11.713Z</time>
      </trkpt>
      <trkpt lat="44.80913" lon="1.69086">
        <ele>351.723846436</ele>
        <time>2015-09-18T15:23:21.809Z</time>
      </trkpt>
      <trkpt lat="44.80914" lon="1.69086">
        <ele>351.7784729</ele>
        <time>2015-09-18T15:23:22.708Z</time>
      </trkpt>
      <trkpt lat="44.80923" lon="1.69084">
        <ele>351.823425293</ele>
        <time>2015-09-18T15:23:32.812Z</time>
      </trkpt>
      <trkpt lat="44.80924" lon="1.69083">
        <ele>351.817993164</ele>
        <time>2015-09-18T15:23:33.739Z</time>
      </trkpt>
      <trkpt lat="44.80931" lon="1.6908">
        <ele>351.758056641</ele>
        <time>2015-09-18T15:23:39.821Z</time>
      </trkpt>
      <trkpt lat="44.80933" lon="1.6908">
        <ele>351.782989502</ele>
        <time>2015-09-18T15:23:40.73Z</time>
      </trkpt>
      <trkpt lat="44.80941" lon="1.69076">
        <ele>352.071624756</ele>
        <time>2015-09-18T15:23:46.754Z</time>
      </trkpt>
      <trkpt lat="44.80942" lon="1.69075">
        <ele>352.097808838</ele>
        <time>2015-09-18T15:23:47.688Z</time>
      </trkpt>
      <trkpt lat="44.8095" lon="1.69071">
        <ele>352.327056885</ele>
        <time>2015-09-18T15:23:56.833Z</time>
      </trkpt>
      <trkpt lat="44.80952" lon="1.69071">
        <ele>352.34854126</ele>
        <time>2015-09-18T15:23:57.749Z</time>
      </trkpt>
      <trkpt lat="44.80959" lon="1.69072">
        <ele>352.202972412</ele>
        <time>2015-09-18T15:24:04.834Z</time>
      </trkpt>
      <trkpt lat="44.80961" lon="1.69071">
        <ele>352.148590088</ele>
        <time>2015-09-18T15:24:05.757Z</time>
      </trkpt>
      <trkpt lat="44.80969" lon="1.69067">
        <ele>352.080352783</ele>
        <time>2015-09-18T15:24:11.834Z</time>
      </trkpt>
      <trkpt lat="44.80971" lon="1.69066">
        <ele>352.03427124</ele>
        <time>2015-09-18T15:24:12.734Z</time>
      </trkpt>
      <trkpt lat="44.80979" lon="1.69062">
        <ele>352.305206299</ele>
        <time>2015-09-18T15:24:19.372Z</time>
      </trkpt>
      <trkpt lat="44.80979" lon="1.69062">
        <ele>352.405151367</ele>
        <time>2015-09-18T15:24:19.668Z</time>
      </trkpt>
      <trkpt lat="44.80987" lon="1.69061">
        <ele>352.717315674</ele>
        <time>2015-09-18T15:24:25.844Z</time>
      </trkpt>
      <trkpt lat="44.80989" lon="1.6906">
        <ele>352.789276123</ele>
        <time>2015-09-18T15:24:26.792Z</time>
      </trkpt>
      <trkpt lat="44.80995" lon="1.69058">
        <ele>353.325042725</ele>
        <time>2015-09-18T15:24:30.86Z</time>
      </trkpt>
      <trkpt lat="44.81009" lon="1.69055">
        <ele>354.84362793</ele>
        <time>2015-09-18T15:24:41.821Z</time>
      </trkpt>
      <trkpt lat="44.81017" lon="1.69056">
        <ele>355.523773193</ele>
        <time>2015-09-18T15:24:46.83Z</time>
      </trkpt>
      <trkpt lat="44.81018" lon="1.69056">
        <ele>355.665283203</ele>
        <time>2015-09-18T15:24:47.737Z</time>
      </trkpt>
      <trkpt lat="44.81026" lon="1.69056">
        <ele>356.192138672</ele>
        <time>2015-09-18T15:24:52.821Z</time>
      </trkpt>
      <trkpt lat="44.81028" lon="1.69057">
        <ele>356.23449707</ele>
        <time>2015-09-18T15:24:53.723Z</time>
      </trkpt>
      <trkpt lat="44.81036" lon="1.69061">
        <ele>356.8074646</ele>
        <time>2015-09-18T15:25:01.019Z</time>
      </trkpt>
      <trkpt lat="44.81038" lon="1.69062">
        <ele>356.900360107</ele>
        <time>2015-09-18T15:25:01.807Z</time>
      </trkpt>
      <trkpt lat="44.81046" lon="1.69064">
        <ele>357.31237793</ele>
        <time>2015-09-18T15:25:09.866Z</time>
      </trkpt>
      <trkpt lat="44.81048" lon="1.69064">
        <ele>357.342559814</ele>
        <time>2015-09-18T15:25:10.633Z</time>
      </trkpt>
      <trkpt lat="44.81057" lon="1.69065">
        <ele>357.38470459</ele>
        <time>2015-09-18T15:25:16.822Z</time>
      </trkpt>
      <trkpt lat="44.81059" lon="1.69065">
        <ele>357.423431396</ele>
        <time>2015-09-18T15:25:17.774Z</time>
      </trkpt>
      <trkpt lat="44.81067" lon="1.69068">
        <ele>357.368255615</ele>
        <time>2015-09-18T15:25:22.764Z</time>
      </trkpt>
      <trkpt lat="44.81069" lon="1.69069">
        <ele>357.342071533</ele>
        <time>2015-09-18T15:25:23.749Z</time>
      </trkpt>
      <trkpt lat="44.81077" lon="1.6907">
        <ele>356.551696777</ele>
        <time>2015-09-18T15:25:31.968Z</time>
      </trkpt>
      <trkpt lat="44.81078" lon="1.6907">
        <ele>356.475494385</ele>
        <time>2015-09-18T15:25:32.675Z</time>
      </trkpt>
      <trkpt lat="44.81086" lon="1.69066">
        <ele>356.261291504</ele>
        <time>2015-09-18T15:25:38.78Z</time>
      </trkpt>
      <trkpt lat="44.81087" lon="1.69065">
        <ele>356.266296387</ele>
        <time>2015-09-18T15:25:39.727Z</time>
      </trkpt>
      <trkpt lat="44.81095" lon="1.69068">
        <ele>356.312713623</ele>
        <time>2015-09-18T15:25:44.938Z</time>
      </trkpt>
      <trkpt lat="44.81096" lon="1.69068">
        <ele>356.366851807</ele>
        <time>2015-09-18T15:25:45.754Z</time>
      </trkpt>
      <trkpt lat="44.81103" lon="1.69069">
        <ele>356.491699219</ele>
        <time>2015-09-18T15:25:50.855Z</time>
      </trkpt>
      <trkpt lat="44.81105" lon="1.69069">
        <ele>356.422393799</ele>
        <time>2015-09-18T15:25:51.77Z</time>
      </trkpt>
      <trkpt lat="44.81113" lon="1.69072">
        <ele>356.364074707</ele>
        <time>2015-09-18T15:25:57.884Z</time>
      </trkpt>
      <trkpt lat="44.81115" lon="1.69073">
        <ele>356.349853516</ele>
        <time>2015-09-18T15:25:58.736Z</time>
      </trkpt>
      <trkpt lat="44.81122" lon="1.69072">
        <ele>356.022583008</ele>
        <time>2015-09-18T15:26:02.829Z</time>
      </trkpt>
      <trkpt lat="44.81124" lon="1.69071">
        <ele>355.943603516</ele>
        <time>2015-09-18T15:26:03.682Z</time>
      </trkpt>
      <trkpt lat="44.81131" lon="1.69063">
        <ele>355.584411621</ele>
        <time>2015-09-18T15:26:11.842Z</time>
      </trkpt>
      <trkpt lat="44.81132" lon="1.69062">
        <ele>355.409301758</ele>
        <time>2015-09-18T15:26:12.725Z</time>
      </trkpt>
      <trkpt lat="44.81137" lon="1.69052">
        <ele>354.233123779</ele>
        <time>2015-09-18T15:26:18.797Z</time>
      </trkpt>
      <trkpt lat="44.81138" lon="1.6905">
        <ele>353.986297607</ele>
        <time>2015-09-18T15:26:19.735Z</time>
      </trkpt>
      <trkpt lat="44.81144" lon="1.6904">
        <ele>353.022094727</ele>
        <time>2015-09-18T15:26:23.83Z</time>
      </trkpt>
      <trkpt lat="44.81145" lon="1.69038">
        <ele>352.798431396</ele>
        <time>2015-09-18T15:26:24.735Z</time>
      </trkpt>
      <trkpt lat="44.81153" lon="1.69034">
        <ele>352.051696777</ele>
        <time>2015-09-18T15:26:28.778Z</time>
      </trkpt>
      <trkpt lat="44.81154" lon="1.69034">
        <ele>351.839996338</ele>
        <time>2015-09-18T15:26:29.715Z</time>
      </trkpt>
      <trkpt lat="44.81162" lon="1.69035">
        <ele>351.059448242</ele>
        <time>2015-09-18T15:26:33.888Z</time>
      </trkpt>
      <trkpt lat="44.81164" lon="1.69035">
        <ele>350.810913086</ele>
        <time>2015-09-18T15:26:34.733Z</time>
      </trkpt>
      <trkpt lat="44.81171" lon="1.69033">
        <ele>350.13067627</ele>
        <time>2015-09-18T15:26:37.832Z</time>
      </trkpt>
      <trkpt lat="44.81173" lon="1.69033">
        <ele>349.922210693</ele>
        <time>2015-09-18T15:26:38.725Z</time>
      </trkpt>
      <trkpt lat="44.81182" lon="1.69032">
        <ele>348.986755371</ele>
        <time>2015-09-18T15:26:43.834Z</time>
      </trkpt>
      <trkpt lat="44.81183" lon="1.69032">
        <ele>348.798522949</ele>
        <time>2015-09-18T15:26:44.75Z</time>
      </trkpt>
      <trkpt lat="44.8119" lon="1.69029">
        <ele>347.912994385</ele>
        <time>2015-09-18T15:26:48.837Z</time>
      </trkpt>
      <trkpt lat="44.81192" lon="1.69029">
        <ele>347.731445312</ele>
        <time>2015-09-18T15:26:49.73Z</time>
      </trkpt>
      <trkpt lat="44.81201" lon="1.69028">
        <ele>347.266967773</ele>
        <time>2015-09-18T15:26:55.866Z</time>
      </trkpt>
      <trkpt lat="44.81202" lon="1.69028">
        <ele>347.251983643</ele>
        <time>2015-09-18T15:26:56.67Z</time>
      </trkpt>
      <trkpt lat="44.81211" lon="1.6903">
        <ele>347.007476807</ele>
        <time>2015-09-18T15:27:03.819Z</time>
      </trkpt>
      <trkpt lat="44.81212" lon="1.6903">
        <ele>346.975982666</ele>
        <time>2015-09-18T15:27:04.678Z</time>
      </trkpt>
      <trkpt lat="44.8122" lon="1.69033">
        <ele>347.032318115</ele>
        <time>2015-09-18T15:27:09.78Z</time>
      </trkpt>
      <trkpt lat="44.81222" lon="1.69034">
        <ele>347.067169189</ele>
        <time>2015-09-18T15:27:10.703Z</time>
      </trkpt>
      <trkpt lat="44.8123" lon="1.69029">
        <ele>350.121673584</ele>
        <time>2015-09-18T15:28:23.822Z</time>
      </trkpt>
      <trkpt lat="44.8123" lon="1.69029">
        <ele>350.441925049</ele>
        <time>2015-09-18T15:28:24.719Z</time>
      </trkpt>
      <trkpt lat="44.81228" lon="1.69018">
        <ele>348.817810059</ele>
        <time>2015-09-18T15:36:41.938Z</time>
      </trkpt>
      <trkpt lat="44.81228" lon="1.69017">
        <ele>348.852294922</ele>
        <time>2015-09-18T15:36:43.066Z</time>
      </trkpt>
      <trkpt lat="44.81221" lon="1.69025">
        <ele>349.921264648</ele>
        <time>2015-09-18T15:37:53.104Z</time>
      </trkpt>
      <trkpt lat="44.81221" lon="1.69026">
        <ele>349.941375732</ele>
        <time>2015-09-18T15:37:54.01Z</time>
      </trkpt>
      <trkpt lat="44.81224" lon="1.69037">
        <ele>350.509216309</ele>
        <time>2015-09-18T15:44:27.956Z</time>
      </trkpt>
      <trkpt lat="44.81223" lon="1.69039">
        <ele>350.985778809</ele>
        <time>2015-09-18T15:44:28.789Z</time>
      </trkpt>
      <trkpt lat="44.81227" lon="1.6905">
        <ele>352.564025879</ele>
        <time>2015-09-18T15:44:51.896Z</time>
      </trkpt>
      <trkpt lat="44.81228" lon="1.6905">
        <ele>352.561950684</ele>
        <time>2015-09-18T15:44:52.811Z</time>
      </trkpt>
      <trkpt lat="44.81221" lon="1.69042">
        <ele>351.972747803</ele>
        <time>2015-09-18T15:45:47.044Z</time>
      </trkpt>
      <trkpt lat="44.81221" lon="1.6904">
        <ele>352.070556641</ele>
        <time>2015-09-18T15:45:47.776Z</time>
      </trkpt>
      <trkpt lat="44.81224" lon="1.69028">
        <ele>349.54309082</ele>
        <time>2015-09-18T15:49:28.909Z</time>
      </trkpt>
      <trkpt lat="44.81224" lon="1.69028">
        <ele>349.535217285</ele>
        <time>2015-09-18T15:49:29.805Z</time>
      </trkpt>
      <trkpt lat="44.81233" lon="1.69031">
        <ele>348.872589111</ele>
        <time>2015-09-18T15:49:43.898Z</time>
      </trkpt>
      <trkpt lat="44.81234" lon="1.69032">
        <ele>348.788208008</ele>
        <time>2015-09-18T15:49:44.791Z</time>
      </trkpt>
      <trkpt lat="44.81243" lon="1.69035">
        <ele>348.590820312</ele>
        <time>2015-09-18T15:49:57.836Z</time>
      </trkpt>
      <trkpt lat="44.81243" lon="1.69035">
        <ele>348.548187256</ele>
        <time>2015-09-18T15:49:58.775Z</time>
      </trkpt>
      <trkpt lat="44.8125" lon="1.6903">
        <ele>348.207305908</ele>
        <time>2015-09-18T15:50:05.807Z</time>
      </trkpt>
      <trkpt lat="44.81252" lon="1.6903">
        <ele>348.213134766</ele>
        <time>2015-09-18T15:50:06.833Z</time>
      </trkpt>
      <trkpt lat="44.81259" lon="1.69032">
        <ele>348.016845703</ele>
        <time>2015-09-18T15:50:10.883Z</time>
      </trkpt>
      <trkpt lat="44.81261" lon="1.69033">
        <ele>347.971313477</ele>
        <time>2015-09-18T15:50:11.831Z</time>
      </trkpt>
      <trkpt lat="44.81269" lon="1.69036">
        <ele>348.067718506</ele>
        <time>2015-09-18T15:50:17.886Z</time>
      </trkpt>
      <trkpt lat="44.8127" lon="1.69037">
        <ele>348.09552002</ele>
        <time>2015-09-18T15:50:18.779Z</time>
      </trkpt>
      <trkpt lat="44.81278" lon="1.69038">
        <ele>348.208007812</ele>
        <time>2015-09-18T15:50:24.93Z</time>
      </trkpt>
      <trkpt lat="44.8128" lon="1.69038">
        <ele>348.220581055</ele>
        <time>2015-09-18T15:50:25.796Z</time>
      </trkpt>
      <trkpt lat="44.81288" lon="1.69036">
        <ele>348.510498047</ele>
        <time>2015-09-18T15:50:35.896Z</time>
      </trkpt>
      <trkpt lat="44.81289" lon="1.69037">
        <ele>348.614685059</ele>
        <time>2015-09-18T15:50:36.788Z</time>
      </trkpt>
      <trkpt lat="44.81297" lon="1.69039">
        <ele>349.113861084</ele>
        <time>2015-09-18T15:50:44.832Z</time>
      </trkpt>
      <trkpt lat="44.81298" lon="1.69039">
        <ele>349.096405029</ele>
        <time>2015-09-18T15:50:45.78Z</time>
      </trkpt>
      <trkpt lat="44.81306" lon="1.69041">
        <ele>349.215698242</ele>
        <time>2015-09-18T15:50:53.782Z</time>
      </trkpt>
      <trkpt lat="44.81308" lon="1.69041">
        <ele>349.245147705</ele>
        <time>2015-09-18T15:50:54.944Z</time>
      </trkpt>
      <trkpt lat="44.81317" lon="1.69044">
        <ele>349.238586426</ele>
        <time>2015-09-18T15:51:00.812Z</time>
      </trkpt>
      <trkpt lat="44.81318" lon="1.69045">
        <ele>349.28616333</ele>
        <time>2015-09-18T15:51:01.793Z</time>
      </trkpt>
      <trkpt lat="44.81327" lon="1.69047">
        <ele>349.56628418</ele>
        <time>2015-09-18T15:51:08.885Z</time>
      </trkpt>
      <trkpt lat="44.81327" lon="1.69048">
        <ele>349.657989502</ele>
        <time>2015-09-18T15:51:09.789Z</time>
      </trkpt>
      <trkpt lat="44.81335" lon="1.69051">
        <ele>350.505187988</ele>
        <time>2015-09-18T15:51:16.893Z</time>
      </trkpt>
      <trkpt lat="44.81337" lon="1.69051">
        <ele>350.584228516</ele>
        <time>2015-09-18T15:51:17.787Z</time>
      </trkpt>
      <trkpt lat="44.81346" lon="1.69052">
        <ele>351.531890869</ele>
        <time>2015-09-18T15:51:27.779Z</time>
      </trkpt>
      <trkpt lat="44.81347" lon="1.69052">
        <ele>351.585205078</ele>
        <time>2015-09-18T15:51:28.766Z</time>
      </trkpt>
      <trkpt lat="44.81355" lon="1.69052">
        <ele>351.838439941</ele>
        <time>2015-09-18T15:51:40.881Z</time>
      </trkpt>
      <trkpt lat="44.81357" lon="1.69053">
        <ele>351.839385986</ele>
        <time>2015-09-18T15:51:41.771Z</time>
      </trkpt>
      <trkpt lat="44.81366" lon="1.69052">
        <ele>351.84362793</ele>
        <time>2015-09-18T15:51:49.812Z</time>
      </trkpt>
      <trkpt lat="44.81367" lon="1.69052">
        <ele>351.861450195</ele>
        <time>2015-09-18T15:51:50.785Z</time>
      </trkpt>
      <trkpt lat="44.81376" lon="1.69052">
        <ele>352.215515137</ele>
        <time>2015-09-18T15:51:59.894Z</time>
      </trkpt>
      <trkpt lat="44.81376" lon="1.69051">
        <ele>352.258605957</ele>
        <time>2015-09-18T15:52:00.744Z</time>
      </trkpt>
      <trkpt lat="44.81384" lon="1.69052">
        <ele>352.559906006</ele>
        <time>2015-09-18T15:52:10.894Z</time>
      </trkpt>
      <trkpt lat="44.81385" lon="1.69052">
        <ele>352.54397583</ele>
        <time>2015-09-18T15:52:11.803Z</time>
      </trkpt>
      <trkpt lat="44.81393" lon="1.69048">
        <ele>352.657409668</ele>
        <time>2015-09-18T15:52:17.89Z</time>
      </trkpt>
      <trkpt lat="44.81395" lon="1.69047">
        <ele>352.682861328</ele>
        <time>2015-09-18T15:52:18.845Z</time>
      </trkpt>
      <trkpt lat="44.81404" lon="1.69043">
        <ele>352.985290527</ele>
        <time>2015-09-18T15:52:23.796Z</time>
      </trkpt>
      <trkpt lat="44.81405" lon="1.69043">
        <ele>353.083068848</ele>
        <time>2015-09-18T15:52:24.794Z</time>
      </trkpt>
      <trkpt lat="44.81413" lon="1.6904">
        <ele>353.861328125</ele>
        <time>2015-09-18T15:52:32.887Z</time>
      </trkpt>
      <trkpt lat="44.81414" lon="1.69039">
        <ele>353.993103027</ele>
        <time>2015-09-18T15:52:33.769Z</time>
      </trkpt>
      <trkpt lat="44.81418" lon="1.6903">
        <ele>355.271942139</ele>
        <time>2015-09-18T15:52:39.937Z</time>
      </trkpt>
      <trkpt lat="44.81419" lon="1.69027">
        <ele>355.505249023</ele>
        <time>2015-09-18T15:52:40.779Z</time>
      </trkpt>
      <trkpt lat="44.81428" lon="1.69026">
        <ele>358.177764893</ele>
        <time>2015-09-18T15:52:53.885Z</time>
      </trkpt>
      <trkpt lat="44.81429" lon="1.69025">
        <ele>358.276428223</ele>
        <time>2015-09-18T15:52:54.842Z</time>
      </trkpt>
      <trkpt lat="44.81438" lon="1.69025">
        <ele>358.601898193</ele>
        <time>2015-09-18T15:53:00.822Z</time>
      </trkpt>
      <trkpt lat="44.81439" lon="1.69025">
        <ele>358.681762695</ele>
        <time>2015-09-18T15:53:01.799Z</time>
      </trkpt>
      <trkpt lat="44.81448" lon="1.69024">
        <ele>360.559753418</ele>
        <time>2015-09-18T15:53:12.914Z</time>
      </trkpt>
      <trkpt lat="44.81448" lon="1.69025">
        <ele>360.681121826</ele>
        <time>2015-09-18T15:53:13.791Z</time>
      </trkpt>
      <trkpt lat="44.81456" lon="1.69032">
        <ele>361.617431641</ele>
        <time>2015-09-18T15:53:22.884Z</time>
      </trkpt>
      <trkpt lat="44.81456" lon="1.69032">
        <ele>361.687103271</ele>
        <time>2015-09-18T15:53:23.782Z</time>
      </trkpt>
      <trkpt lat="44.81464" lon="1.69036">
        <ele>362.135040283</ele>
        <time>2015-09-18T15:53:30.889Z</time>
      </trkpt>
      <trkpt lat="44.81465" lon="1.69036">
        <ele>362.269317627</ele>
        <time>2015-09-18T15:53:31.779Z</time>
      </trkpt>
      <trkpt lat="44.81473" lon="1.69038">
        <ele>362.576965332</ele>
        <time>2015-09-18T15:53:40.927Z</time>
      </trkpt>
      <trkpt lat="44.81474" lon="1.69038">
        <ele>362.580444336</ele>
        <time>2015-09-18T15:53:41.724Z</time>
      </trkpt>
      <trkpt lat="44.81481" lon="1.69045">
        <ele>362.105072021</ele>
        <time>2015-09-18T15:53:55.879Z</time>
      </trkpt>
      <trkpt lat="44.81482" lon="1.69045">
        <ele>362.077056885</ele>
        <time>2015-09-18T15:53:56.784Z</time>
      </trkpt>
      <trkpt lat="44.81486" lon="1.69054">
        <ele>361.814453125</ele>
        <time>2015-09-18T15:54:06.92Z</time>
      </trkpt>
      <trkpt lat="44.81488" lon="1.69056">
        <ele>361.74005127</ele>
        <time>2015-09-18T15:54:07.792Z</time>
      </trkpt>
      <trkpt lat="44.81491" lon="1.69067">
        <ele>360.24206543</ele>
        <time>2015-09-18T15:54:16.855Z</time>
      </trkpt>
      <trkpt lat="44.81492" lon="1.69069">
        <ele>360.104675293</ele>
        <time>2015-09-18T15:54:17.788Z</time>
      </trkpt>
      <trkpt lat="44.81499" lon="1.69075">
        <ele>359.582427979</ele>
        <time>2015-09-18T15:54:21.852Z</time>
      </trkpt>
      <trkpt lat="44.81501" lon="1.69077">
        <ele>359.408508301</ele>
        <time>2015-09-18T15:54:22.76Z</time>
      </trkpt>
      <trkpt lat="44.81509" lon="1.69081">
        <ele>358.864349365</ele>
        <time>2015-09-18T15:54:31.88Z</time>
      </trkpt>
      <trkpt lat="44.8151" lon="1.69082">
        <ele>358.896881104</ele>
        <time>2015-09-18T15:54:32.77Z</time>
      </trkpt>
      <trkpt lat="44.81518" lon="1.69086">
        <ele>360.179870605</ele>
        <time>2015-09-18T15:55:12.885Z</time>
      </trkpt>
      <trkpt lat="44.81519" lon="1.69086">
        <ele>360.200927734</ele>
        <time>2015-09-18T15:55:13.753Z</time>
      </trkpt>
      <trkpt lat="44.81526" lon="1.69092">
        <ele>360.990631104</ele>
        <time>2015-09-18T15:55:25.998Z</time>
      </trkpt>
      <trkpt lat="44.81527" lon="1.69094">
        <ele>361.153930664</ele>
        <time>2015-09-18T15:55:26.726Z</time>
      </trkpt>
      <trkpt lat="44.81535" lon="1.691">
        <ele>362.142150879</ele>
        <time>2015-09-18T15:55:34.845Z</time>
      </trkpt>
      <trkpt lat="44.81536" lon="1.69101">
        <ele>362.245361328</ele>
        <time>2015-09-18T15:55:35.78Z</time>
      </trkpt>
      <trkpt lat="44.81542" lon="1.69107">
        <ele>363.270233154</ele>
        <time>2015-09-18T15:55:43.88Z</time>
      </trkpt>
      <trkpt lat="44.81544" lon="1.69108">
        <ele>363.407928467</ele>
        <time>2015-09-18T15:55:44.853Z</time>
      </trkpt>
      <trkpt lat="44.8155" lon="1.69115">
        <ele>364.026702881</ele>
        <time>2015-09-18T15:55:52.873Z</time>
      </trkpt>
      <trkpt lat="44.81551" lon="1.69116">
        <ele>364.072387695</ele>
        <time>2015-09-18T15:55:53.779Z</time>
      </trkpt>
      <trkpt lat="44.81558" lon="1.69122">
        <ele>364.661224365</ele>
        <time>2015-09-18T15:56:01.825Z</time>
      </trkpt>
      <trkpt lat="44.8156" lon="1.69123">
        <ele>364.778167725</ele>
        <time>2015-09-18T15:56:02.778Z</time>
      </trkpt>
      <trkpt lat="44.81566" lon="1.69129">
        <ele>365.238952637</ele>
        <time>2015-09-18T15:56:07.886Z</time>
      </trkpt>
      <trkpt lat="44.81568" lon="1.6913">
        <ele>365.353118896</ele>
        <time>2015-09-18T15:56:08.778Z</time>
      </trkpt>
      <trkpt lat="44.81572" lon="1.6914">
        <ele>365.969451904</ele>
        <time>2015-09-18T15:56:13.885Z</time>
      </trkpt>
      <trkpt lat="44.81573" lon="1.69142">
        <ele>366.09362793</ele>
        <time>2015-09-18T15:56:14.775Z</time>
      </trkpt>
      <trkpt lat="44.81579" lon="1.69151">
        <ele>367.519897461</ele>
        <time>2015-09-18T15:56:26.934Z</time>
      </trkpt>
      <trkpt lat="44.81579" lon="1.69153">
        <ele>367.605407715</ele>
        <time>2015-09-18T15:56:27.782Z</time>
      </trkpt>
      <trkpt lat="44.81587" lon="1.69155">
        <ele>373.854370117</ele>
        <time>2015-09-18T15:59:33.797Z</time>
      </trkpt>
      <trkpt lat="44.81588" lon="1.69155">
        <ele>373.880187988</ele>
        <time>2015-09-18T15:59:34.821Z</time>
      </trkpt>
      <trkpt lat="44.81592" lon="1.69164">
        <ele>377.686248779</ele>
        <time>2015-09-18T16:02:29.95Z</time>
      </trkpt>
      <trkpt lat="44.81592" lon="1.69166">
        <ele>377.760925293</ele>
        <time>2015-09-18T16:02:30.796Z</time>
      </trkpt>
      <trkpt lat="44.81599" lon="1.69174">
        <ele>378.398895264</ele>
        <time>2015-09-18T16:02:40.846Z</time>
      </trkpt>
      <trkpt lat="44.816" lon="1.69175">
        <ele>378.412109375</ele>
        <time>2015-09-18T16:02:41.776Z</time>
      </trkpt>
      <trkpt lat="44.81607" lon="1.6918">
        <ele>378.420349121</ele>
        <time>2015-09-18T16:02:47.152Z</time>
      </trkpt>
      <trkpt lat="44.81608" lon="1.69181">
        <ele>378.408447266</ele>
        <time>2015-09-18T16:02:47.728Z</time>
      </trkpt>
      <trkpt lat="44.81617" lon="1.69184">
        <ele>378.652160645</ele>
        <time>2015-09-18T16:02:57.89Z</time>
      </trkpt>
      <trkpt lat="44.81617" lon="1.69185">
        <ele>378.686187744</ele>
        <time>2015-09-18T16:02:58.788Z</time>
      </trkpt>
      <trkpt lat="44.81622" lon="1.69193">
        <ele>378.828552246</ele>
        <time>2015-09-18T16:03:07.81Z</time>
      </trkpt>
      <trkpt lat="44.81623" lon="1.69194">
        <ele>378.886016846</ele>
        <time>2015-09-18T16:03:08.786Z</time>
      </trkpt>
      <trkpt lat="44.81631" lon="1.69198">
        <ele>379.091339111</ele>
        <time>2015-09-18T16:03:14.068Z</time>
      </trkpt>
      <trkpt lat="44.81633" lon="1.69199">
        <ele>379.120391846</ele>
        <time>2015-09-18T16:03:14.798Z</time>
      </trkpt>
      <trkpt lat="44.81641" lon="1.69199">
        <ele>379.178161621</ele>
        <time>2015-09-18T16:03:21.929Z</time>
      </trkpt>
      <trkpt lat="44.81642" lon="1.69199">
        <ele>379.133178711</ele>
        <time>2015-09-18T16:03:22.806Z</time>
      </trkpt>
      <trkpt lat="44.81651" lon="1.69199">
        <ele>379.347381592</ele>
        <time>2015-09-18T16:03:31.823Z</time>
      </trkpt>
      <trkpt lat="44.81652" lon="1.692">
        <ele>379.351287842</ele>
        <time>2015-09-18T16:03:32.796Z</time>
      </trkpt>
      <trkpt lat="44.81661" lon="1.69198">
        <ele>379.600067139</ele>
        <time>2015-09-18T16:03:37.941Z</time>
      </trkpt>
      <trkpt lat="44.81662" lon="1.69198">
        <ele>379.704864502</ele>
        <time>2015-09-18T16:03:38.795Z</time>
      </trkpt>
      <trkpt lat="44.8167" lon="1.69196">
        <ele>380.729217529</ele>
        <time>2015-09-18T16:03:49.89Z</time>
      </trkpt>
      <trkpt lat="44.81672" lon="1.69196">
        <ele>380.802124023</ele>
        <time>2015-09-18T16:03:51.437Z</time>
      </trkpt>
      <trkpt lat="44.8168" lon="1.692">
        <ele>381.194488525</ele>
        <time>2015-09-18T16:03:58.913Z</time>
      </trkpt>
      <trkpt lat="44.81681" lon="1.692">
        <ele>381.205352783</ele>
        <time>2015-09-18T16:03:59.785Z</time>
      </trkpt>
      <trkpt lat="44.81687" lon="1.69208">
        <ele>380.948028564</ele>
        <time>2015-09-18T16:04:07.806Z</time>
      </trkpt>
      <trkpt lat="44.81688" lon="1.6921">
        <ele>380.907928467</ele>
        <time>2015-09-18T16:04:08.765Z</time>
      </trkpt>
      <trkpt lat="44.8169" lon="1.6922">
        <ele>380.763397217</ele>
        <time>2015-09-18T16:04:12.806Z</time>
      </trkpt>
      <trkpt lat="44.81691" lon="1.69222">
        <ele>380.679046631</ele>
        <time>2015-09-18T16:04:13.785Z</time>
      </trkpt>
      <trkpt lat="44.81692" lon="1.69234">
        <ele>380.368164062</ele>
        <time>2015-09-18T16:04:21.947Z</time>
      </trkpt>
      <trkpt lat="44.81693" lon="1.69234">
        <ele>380.420410156</ele>
        <time>2015-09-18T16:04:22.81Z</time>
      </trkpt>
      <trkpt lat="44.817" lon="1.6924">
        <ele>380.817352295</ele>
        <time>2015-09-18T16:04:29.981Z</time>
      </trkpt>
      <trkpt lat="44.81701" lon="1.69242">
        <ele>380.871490479</ele>
        <time>2015-09-18T16:04:30.816Z</time>
      </trkpt>
      <trkpt lat="44.81707" lon="1.6925">
        <ele>381.321166992</ele>
        <time>2015-09-18T16:04:41.022Z</time>
      </trkpt>
      <trkpt lat="44.81709" lon="1.69252">
        <ele>381.370300293</ele>
        <time>2015-09-18T16:04:41.723Z</time>
      </trkpt>
      <trkpt lat="44.81716" lon="1.69253">
        <ele>381.462188721</ele>
        <time>2015-09-18T16:04:47.025Z</time>
      </trkpt>
      <trkpt lat="44.81719" lon="1.69253">
        <ele>381.500823975</ele>
        <time>2015-09-18T16:04:47.728Z</time>
      </trkpt>
      <trkpt lat="44.81727" lon="1.69255">
        <ele>381.513427734</ele>
        <time>2015-09-18T16:05:05.775Z</time>
      </trkpt>
      <trkpt lat="44.81728" lon="1.69255">
        <ele>381.572479248</ele>
        <time>2015-09-18T16:05:06.815Z</time>
      </trkpt>
      <trkpt lat="44.81735" lon="1.69263">
        <ele>381.232147217</ele>
        <time>2015-09-18T16:05:21.796Z</time>
      </trkpt>
      <trkpt lat="44.81736" lon="1.69263">
        <ele>381.227844238</ele>
        <time>2015-09-18T16:05:22.831Z</time>
      </trkpt>
      <trkpt lat="44.81743" lon="1.69269">
        <ele>380.893707275</ele>
        <time>2015-09-18T16:05:30.829Z</time>
      </trkpt>
      <trkpt lat="44.81743" lon="1.6927">
        <ele>380.849395752</ele>
        <time>2015-09-18T16:05:31.776Z</time>
      </trkpt>
      <trkpt lat="44.8175" lon="1.69277">
        <ele>381.385803223</ele>
        <time>2015-09-18T16:05:40.759Z</time>
      </trkpt>
      <trkpt lat="44.8175" lon="1.69277">
        <ele>381.509613037</ele>
        <time>2015-09-18T16:05:41.78Z</time>
      </trkpt>
      <trkpt lat="44.81758" lon="1.69282">
        <ele>382.014190674</ele>
        <time>2015-09-18T16:05:47.824Z</time>
      </trkpt>
      <trkpt lat="44.81759" lon="1.69282">
        <ele>382.119842529</ele>
        <time>2015-09-18T16:05:48.761Z</time>
      </trkpt>
      <trkpt lat="44.81766" lon="1.69286">
        <ele>382.874420166</ele>
        <time>2015-09-18T16:05:56.829Z</time>
      </trkpt>
      <trkpt lat="44.81767" lon="1.69287">
        <ele>382.888336182</ele>
        <time>2015-09-18T16:05:57.788Z</time>
      </trkpt>
      <trkpt lat="44.81776" lon="1.69285">
        <ele>383.690856934</ele>
        <time>2015-09-18T16:06:09.869Z</time>
      </trkpt>
      <trkpt lat="44.81776" lon="1.69284">
        <ele>383.924072266</ele>
        <time>2015-09-18T16:06:10.762Z</time>
      </trkpt>
      <trkpt lat="44.81785" lon="1.69287">
        <ele>384.924987793</ele>
        <time>2015-09-18T16:06:24.832Z</time>
      </trkpt>
      <trkpt lat="44.81786" lon="1.69288">
        <ele>384.941864014</ele>
        <time>2015-09-18T16:06:25.754Z</time>
      </trkpt>
      <trkpt lat="44.81792" lon="1.69296">
        <ele>385.080047607</ele>
        <time>2015-09-18T16:06:35.862Z</time>
      </trkpt>
      <trkpt lat="44.81793" lon="1.69297">
        <ele>385.033538818</ele>
        <time>2015-09-18T16:06:36.69Z</time>
      </trkpt>
      <trkpt lat="44.81799" lon="1.69303">
        <ele>385.706237793</ele>
        <time>2015-09-18T16:06:46.864Z</time>
      </trkpt>
      <trkpt lat="44.818" lon="1.69304">
        <ele>385.72253418</ele>
        <time>2015-09-18T16:06:47.764Z</time>
      </trkpt>
      <trkpt lat="44.81806" lon="1.69313">
        <ele>385.82144165</ele>
        <time>2015-09-18T16:07:04.894Z</time>
      </trkpt>
      <trkpt lat="44.81807" lon="1.69314">
        <ele>385.787322998</ele>
        <time>2015-09-18T16:07:05.779Z</time>
      </trkpt>
      <trkpt lat="44.81811" lon="1.69322">
        <ele>385.627868652</ele>
        <time>2015-09-18T16:07:12.934Z</time>
      </trkpt>
      <trkpt lat="44.81811" lon="1.69325">
        <ele>385.634185791</ele>
        <time>2015-09-18T16:07:13.789Z</time>
      </trkpt>
      <trkpt lat="44.81814" lon="1.69335">
        <ele>385.237365723</ele>
        <time>2015-09-18T16:07:19.507Z</time>
      </trkpt>
      <trkpt lat="44.81815" lon="1.69336">
        <ele>385.129699707</ele>
        <time>2015-09-18T16:07:19.724Z</time>
      </trkpt>
      <trkpt lat="44.81817" lon="1.69345">
        <ele>387.533508301</ele>
        <time>2015-09-18T16:07:48.815Z</time>
      </trkpt>
      <trkpt lat="44.81818" lon="1.69349">
        <ele>387.520782471</ele>
        <time>2015-09-18T16:07:49.734Z</time>
      </trkpt>
      <trkpt lat="44.81824" lon="1.69358">
        <ele>390.758300781</ele>
        <time>2015-09-18T16:08:24.888Z</time>
      </trkpt>
      <trkpt lat="44.81825" lon="1.69359">
        <ele>390.759521484</ele>
        <time>2015-09-18T16:08:25.808Z</time>
      </trkpt>
      <trkpt lat="44.8183" lon="1.69366">
        <ele>390.435791016</ele>
        <time>2015-09-18T16:08:34.454Z</time>
      </trkpt>
      <trkpt lat="44.81831" lon="1.69368">
        <ele>390.357116699</ele>
        <time>2015-09-18T16:08:34.725Z</time>
      </trkpt>
      <trkpt lat="44.81837" lon="1.69378">
        <ele>388.987335205</ele>
        <time>2015-09-18T16:08:43.961Z</time>
      </trkpt>
      <trkpt lat="44.81838" lon="1.69378">
        <ele>388.894500732</ele>
        <time>2015-09-18T16:08:45.462Z</time>
      </trkpt>
      <trkpt lat="44.81845" lon="1.69382">
        <ele>388.542877197</ele>
        <time>2015-09-18T16:08:52.093Z</time>
      </trkpt>
      <trkpt lat="44.81846" lon="1.69383">
        <ele>388.51965332</ele>
        <time>2015-09-18T16:08:52.727Z</time>
      </trkpt>
      <trkpt lat="44.81855" lon="1.69387">
        <ele>388.652832031</ele>
        <time>2015-09-18T16:09:02.932Z</time>
      </trkpt>
      <trkpt lat="44.81856" lon="1.69388">
        <ele>388.594726562</ele>
        <time>2015-09-18T16:09:03.789Z</time>
      </trkpt>
      <trkpt lat="44.81864" lon="1.6939">
        <ele>389.240112305</ele>
        <time>2015-09-18T16:09:14.883Z</time>
      </trkpt>
      <trkpt lat="44.81865" lon="1.69391">
        <ele>389.3152771</ele>
        <time>2015-09-18T16:09:15.781Z</time>
      </trkpt>
      <trkpt lat="44.81874" lon="1.6939">
        <ele>389.636260986</ele>
        <time>2015-09-18T16:09:23.89Z</time>
      </trkpt>
      <trkpt lat="44.81874" lon="1.69387">
        <ele>389.642944336</ele>
        <time>2015-09-18T16:09:24.76Z</time>
      </trkpt>
      <trkpt lat="44.8188" lon="1.69381">
        <ele>389.637115479</ele>
        <time>2015-09-18T16:09:34.927Z</time>
      </trkpt>
      <trkpt lat="44.81883" lon="1.6938">
        <ele>389.672393799</ele>
        <time>2015-09-18T16:09:35.659Z</time>
      </trkpt>
      <trkpt lat="44.81891" lon="1.69375">
        <ele>390.992523193</ele>
        <time>2015-09-18T16:09:49.796Z</time>
      </trkpt>
      <trkpt lat="44.81891" lon="1.69375">
        <ele>391.14553833</ele>
        <time>2015-09-18T16:09:50.662Z</time>
      </trkpt>
      <trkpt lat="44.81897" lon="1.69366">
        <ele>392.48236084</ele>
        <time>2015-09-18T16:10:02.721Z</time>
      </trkpt>
      <trkpt lat="44.81897" lon="1.69364">
        <ele>392.583190918</ele>
        <time>2015-09-18T16:10:03.685Z</time>
      </trkpt>
      <trkpt lat="44.81902" lon="1.69354">
        <ele>395.768829346</ele>
        <time>2015-09-18T16:10:24.707Z</time>
      </trkpt>
      <trkpt lat="44.81902" lon="1.69353">
        <ele>395.79574585</ele>
        <time>2015-09-18T16:10:25.625Z</time>
      </trkpt>
      <trkpt lat="44.81909" lon="1.69346">
        <ele>396.870910645</ele>
        <time>2015-09-18T16:10:35.724Z</time>
      </trkpt>
      <trkpt lat="44.8191" lon="1.69345">
        <ele>396.961029053</ele>
        <time>2015-09-18T16:10:36.621Z</time>
      </trkpt>
      <trkpt lat="44.81915" lon="1.69337">
        <ele>398.101623535</ele>
        <time>2015-09-18T16:10:43.717Z</time>
      </trkpt>
      <trkpt lat="44.81916" lon="1.69336">
        <ele>398.233184814</ele>
        <time>2015-09-18T16:10:44.656Z</time>
      </trkpt>
      <trkpt lat="44.81921" lon="1.69326">
        <ele>398.940826416</ele>
        <time>2015-09-18T16:10:50.869Z</time>
      </trkpt>
      <trkpt lat="44.81921" lon="1.69326">
        <ele>398.989105225</ele>
        <time>2015-09-18T16:10:51.664Z</time>
      </trkpt>
      <trkpt lat="44.81929" lon="1.69321">
        <ele>400.557647705</ele>
        <time>2015-09-18T16:11:00.751Z</time>
      </trkpt>
      <trkpt lat="44.8193" lon="1.6932">
        <ele>400.741821289</ele>
        <time>2015-09-18T16:11:01.708Z</time>
      </trkpt>
      <trkpt lat="44.81934" lon="1.69309">
        <ele>401.737518311</ele>
        <time>2015-09-18T16:11:07.782Z</time>
      </trkpt>
      <trkpt lat="44.81934" lon="1.69308">
        <ele>401.882141113</ele>
        <time>2015-09-18T16:11:08.682Z</time>
      </trkpt>
      <trkpt lat="44.81941" lon="1.693">
        <ele>403.593841553</ele>
        <time>2015-09-18T16:11:19.783Z</time>
      </trkpt>
      <trkpt lat="44.81942" lon="1.69297">
        <ele>403.768035889</ele>
        <time>2015-09-18T16:11:20.701Z</time>
      </trkpt>
      <trkpt lat="44.81946" lon="1.69287">
        <ele>404.081207275</ele>
        <time>2015-09-18T16:11:25.81Z</time>
      </trkpt>
      <trkpt lat="44.81947" lon="1.69286">
        <ele>404.1640625</ele>
        <time>2015-09-18T16:11:26.676Z</time>
      </trkpt>
      <trkpt lat="44.81954" lon="1.69278">
        <ele>404.787811279</ele>
        <time>2015-09-18T16:11:33.817Z</time>
      </trkpt>
      <trkpt lat="44.81955" lon="1.69277">
        <ele>404.830474854</ele>
        <time>2015-09-18T16:11:34.685Z</time>
      </trkpt>
      <trkpt lat="44.81963" lon="1.69281">
        <ele>405.658935547</ele>
        <time>2015-09-18T16:11:56.72Z</time>
      </trkpt>
      <trkpt lat="44.81963" lon="1.69282">
        <ele>405.633331299</ele>
        <time>2015-09-18T16:11:57.619Z</time>
      </trkpt>
      <trkpt lat="44.81965" lon="1.69294">
        <ele>405.516571045</ele>
        <time>2015-09-18T16:12:02.97Z</time>
      </trkpt>
      <trkpt lat="44.81965" lon="1.69296">
        <ele>405.483947754</ele>
        <time>2015-09-18T16:12:03.677Z</time>
      </trkpt>
      <trkpt lat="44.81965" lon="1.69308">
        <ele>405.554046631</ele>
        <time>2015-09-18T16:12:11.725Z</time>
      </trkpt>
      <trkpt lat="44.81965" lon="1.69309">
        <ele>405.636871338</ele>
        <time>2015-09-18T16:12:12.616Z</time>
      </trkpt>
      <trkpt lat="44.81967" lon="1.69321">
        <ele>405.95703125</ele>
        <time>2015-09-18T16:12:21.953Z</time>
      </trkpt>
      <trkpt lat="44.81967" lon="1.69323">
        <ele>406.022216797</ele>
        <time>2015-09-18T16:12:22.68Z</time>
      </trkpt>
      <trkpt lat="44.81967" lon="1.69335">
        <ele>406.379486084</ele>
        <time>2015-09-18T16:12:32.759Z</time>
      </trkpt>
      <trkpt lat="44.81967" lon="1.69336">
        <ele>406.467224121</ele>
        <time>2015-09-18T16:12:33.676Z</time>
      </trkpt>
      <trkpt lat="44.81972" lon="1.69346">
        <ele>406.845031738</ele>
        <time>2015-09-18T16:12:38.798Z</time>
      </trkpt>
      <trkpt lat="44.81974" lon="1.69348">
        <ele>406.890136719</ele>
        <time>2015-09-18T16:12:39.666Z</time>
      </trkpt>
      <trkpt lat="44.81977" lon="1.69358">
        <ele>407.153747559</ele>
        <time>2015-09-18T16:12:44.72Z</time>
      </trkpt>
      <trkpt lat="44.81988" lon="1.69421">
        <ele>409.362976074</ele>
        <time>2015-09-18T16:13:29.514Z</time>
      </trkpt>
      <trkpt lat="44.81992" lon="1.69431">
        <ele>410.196960449</ele>
        <time>2015-09-18T16:13:41.746Z</time>
      </trkpt>
      <trkpt lat="44.81993" lon="1.69433">
        <ele>410.282043457</ele>
        <time>2015-09-18T16:13:42.595Z</time>
      </trkpt>
      <trkpt lat="44.81993" lon="1.69437">
        <ele>410.618377686</ele>
        <time>2015-09-18T16:13:45.667Z</time>
      </trkpt>
      <trkpt lat="44.82001" lon="1.69456">
        <ele>412.485321045</ele>
        <time>2015-09-18T16:14:01.686Z</time>
      </trkpt>
      <trkpt lat="44.82003" lon="1.69468">
        <ele>414.840515137</ele>
        <time>2015-09-18T16:14:19.672Z</time>
      </trkpt>
      <trkpt lat="44.82004" lon="1.69469">
        <ele>414.833343506</ele>
        <time>2015-09-18T16:14:20.618Z</time>
      </trkpt>
      <trkpt lat="44.82008" lon="1.69479">
        <ele>415.05682373</ele>
        <time>2015-09-18T16:14:28.821Z</time>
      </trkpt>
      <trkpt lat="44.82009" lon="1.6948">
        <ele>415.130340576</ele>
        <time>2015-09-18T16:14:29.609Z</time>
      </trkpt>
      <trkpt lat="44.82013" lon="1.6949">
        <ele>415.898712158</ele>
        <time>2015-09-18T16:14:38.668Z</time>
      </trkpt>
      <trkpt lat="44.82013" lon="1.69492">
        <ele>415.94128418</ele>
        <time>2015-09-18T16:14:39.588Z</time>
      </trkpt>
      <trkpt lat="44.82016" lon="1.69502">
        <ele>416.872131348</ele>
        <time>2015-09-18T16:14:52.232Z</time>
      </trkpt>
      <trkpt lat="44.82017" lon="1.69505">
        <ele>417.080505371</ele>
        <time>2015-09-18T16:14:52.479Z</time>
      </trkpt>
      <trkpt lat="44.82021" lon="1.69515">
        <ele>417.968475342</ele>
        <time>2015-09-18T16:15:01.226Z</time>
      </trkpt>
      <trkpt lat="44.82021" lon="1.69517">
        <ele>418.050689697</ele>
        <time>2015-09-18T16:15:01.87Z</time>
      </trkpt>
      <trkpt lat="44.82022" lon="1.69521">
        <ele>418.572753906</ele>
        <time>2015-09-18T16:15:05.684Z</time>
      </trkpt>
      <trkpt lat="44.82036" lon="1.69555">
        <ele>421.540435791</ele>
        <time>2015-09-18T16:15:31.766Z</time>
      </trkpt>
      <trkpt lat="44.8204" lon="1.69559">
        <ele>421.281951904</ele>
        <time>2015-09-18T16:15:45.713Z</time>
      </trkpt>
      <trkpt lat="44.82042" lon="1.6957">
        <ele>421.388641357</ele>
        <time>2015-09-18T16:15:51.558Z</time>
      </trkpt>
      <trkpt lat="44.82046" lon="1.6958">
        <ele>422.213012695</ele>
        <time>2015-09-18T16:16:17.758Z</time>
      </trkpt>
      <trkpt lat="44.82046" lon="1.69581">
        <ele>422.242950439</ele>
        <time>2015-09-18T16:16:18.489Z</time>
      </trkpt>
      <trkpt lat="44.82051" lon="1.6959">
        <ele>422.457214355</ele>
        <time>2015-09-18T16:16:24.587Z</time>
      </trkpt>
      <trkpt lat="44.82052" lon="1.69592">
        <ele>422.560943604</ele>
        <time>2015-09-18T16:16:25.519Z</time>
      </trkpt>
      <trkpt lat="44.82051" lon="1.69603">
        <ele>424.010314941</ele>
        <time>2015-09-18T16:17:16.292Z</time>
      </trkpt>
      <trkpt lat="44.82053" lon="1.69605">
        <ele>424.080108643</ele>
        <time>2015-09-18T16:17:16.492Z</time>
      </trkpt>
      <trkpt lat="44.82057" lon="1.69614">
        <ele>424.721618652</ele>
        <time>2015-09-18T16:17:24.683Z</time>
      </trkpt>
      <trkpt lat="44.82058" lon="1.69616">
        <ele>424.797027588</ele>
        <time>2015-09-18T16:17:25.839Z</time>
      </trkpt>
      <trkpt lat="44.82061" lon="1.69627">
        <ele>424.938415527</ele>
        <time>2015-09-18T16:17:33.66Z</time>
      </trkpt>
      <trkpt lat="44.82061" lon="1.69629">
        <ele>424.932617188</ele>
        <time>2015-09-18T16:17:34.582Z</time>
      </trkpt>
      <trkpt lat="44.82061" lon="1.69639">
        <ele>425.550750732</ele>
        <time>2015-09-18T16:17:45.722Z</time>
      </trkpt>
      <trkpt lat="44.82047" lon="1.69635">
        <ele>426.955688477</ele>
        <time>2015-09-18T16:18:06.934Z</time>
      </trkpt>
      <trkpt lat="44.82039" lon="1.69638">
        <ele>427.7628479</ele>
        <time>2015-09-18T16:18:37.272Z</time>
      </trkpt>
      <trkpt lat="44.82037" lon="1.69637">
        <ele>427.679779053</ele>
        <time>2015-09-18T16:18:37.635Z</time>
      </trkpt>
      <trkpt lat="44.82033" lon="1.69637">
        <ele>427.497070312</ele>
        <time>2015-09-18T16:18:41.716Z</time>
      </trkpt>
      <trkpt lat="44.82016" lon="1.69634">
        <ele>428.230621338</ele>
        <time>2015-09-18T16:18:58.597Z</time>
      </trkpt>
      <trkpt lat="44.82007" lon="1.69635">
        <ele>428.388549805</ele>
        <time>2015-09-18T16:19:06.735Z</time>
      </trkpt>
      <trkpt lat="44.82006" lon="1.69635">
        <ele>428.428955078</ele>
        <time>2015-09-18T16:19:07.645Z</time>
      </trkpt>
      <trkpt lat="44.81998" lon="1.69636">
        <ele>428.415008545</ele>
        <time>2015-09-18T16:19:17.874Z</time>
      </trkpt>
      <trkpt lat="44.81997" lon="1.69636">
        <ele>428.359710693</ele>
        <time>2015-09-18T16:19:18.608Z</time>
      </trkpt>
      <trkpt lat="44.81988" lon="1.69636">
        <ele>427.851043701</ele>
        <time>2015-09-18T16:19:27.788Z</time>
      </trkpt>
      <trkpt lat="44.81987" lon="1.69635">
        <ele>427.717041016</ele>
        <time>2015-09-18T16:19:28.614Z</time>
      </trkpt>
      <trkpt lat="44.81979" lon="1.69632">
        <ele>425.954559326</ele>
        <time>2015-09-18T16:19:40.711Z</time>
      </trkpt>
      <trkpt lat="44.81976" lon="1.69633">
        <ele>425.779785156</ele>
        <time>2015-09-18T16:19:41.657Z</time>
      </trkpt>
      <trkpt lat="44.81969" lon="1.69633">
        <ele>425.028320312</ele>
        <time>2015-09-18T16:19:49.717Z</time>
      </trkpt>
      <trkpt lat="44.81967" lon="1.69635">
        <ele>424.895751953</ele>
        <time>2015-09-18T16:19:50.614Z</time>
      </trkpt>
      <trkpt lat="44.81959" lon="1.69641">
        <ele>424.537261963</ele>
        <time>2015-09-18T16:19:57.679Z</time>
      </trkpt>
      <trkpt lat="44.81959" lon="1.69641">
        <ele>424.490875244</ele>
        <time>2015-09-18T16:19:59.263Z</time>
      </trkpt>
      <trkpt lat="44.81952" lon="1.69648">
        <ele>424.031677246</ele>
        <time>2015-09-18T16:20:06.745Z</time>
      </trkpt>
      <trkpt lat="44.8195" lon="1.69648">
        <ele>424.019500732</ele>
        <time>2015-09-18T16:20:07.615Z</time>
      </trkpt>
      <trkpt lat="44.81942" lon="1.6965">
        <ele>423.682250977</ele>
        <time>2015-09-18T16:20:15.641Z</time>
      </trkpt>
      <trkpt lat="44.81941" lon="1.6965">
        <ele>423.671478271</ele>
        <time>2015-09-18T16:20:16.614Z</time>
      </trkpt>
      <trkpt lat="44.81933" lon="1.69651">
        <ele>423.334136963</ele>
        <time>2015-09-18T16:20:26.746Z</time>
      </trkpt>
      <trkpt lat="44.81932" lon="1.6965">
        <ele>423.299591064</ele>
        <time>2015-09-18T16:20:27.614Z</time>
      </trkpt>
      <trkpt lat="44.81923" lon="1.6965">
        <ele>422.811157227</ele>
        <time>2015-09-18T16:20:36.709Z</time>
      </trkpt>
      <trkpt lat="44.81922" lon="1.69651">
        <ele>422.762420654</ele>
        <time>2015-09-18T16:20:37.608Z</time>
      </trkpt>
      <trkpt lat="44.81913" lon="1.69652">
        <ele>422.546813965</ele>
        <time>2015-09-18T16:20:45.767Z</time>
      </trkpt>
      <trkpt lat="44.81912" lon="1.69652">
        <ele>422.534637451</ele>
        <time>2015-09-18T16:20:46.603Z</time>
      </trkpt>
      <trkpt lat="44.81904" lon="1.6965">
        <ele>422.21786499</ele>
        <time>2015-09-18T16:20:54.55Z</time>
      </trkpt>
      <trkpt lat="44.81903" lon="1.69649">
        <ele>422.092559814</ele>
        <time>2015-09-18T16:20:55.608Z</time>
      </trkpt>
      <trkpt lat="44.81895" lon="1.69645">
        <ele>421.76348877</ele>
        <time>2015-09-18T16:21:02.733Z</time>
      </trkpt>
      <trkpt lat="44.81894" lon="1.69644">
        <ele>421.747772217</ele>
        <time>2015-09-18T16:21:03.611Z</time>
      </trkpt>
      <trkpt lat="44.81886" lon="1.69642">
        <ele>421.919555664</ele>
        <time>2015-09-18T16:21:10.75Z</time>
      </trkpt>
      <trkpt lat="44.81885" lon="1.69642">
        <ele>421.920349121</ele>
        <time>2015-09-18T16:21:11.604Z</time>
      </trkpt>
      <trkpt lat="44.81878" lon="1.6964">
        <ele>421.813354492</ele>
        <time>2015-09-18T16:21:19.708Z</time>
      </trkpt>
      <trkpt lat="44.81876" lon="1.69638">
        <ele>421.816650391</ele>
        <time>2015-09-18T16:21:20.566Z</time>
      </trkpt>
      <trkpt lat="44.81867" lon="1.69638">
        <ele>422.178833008</ele>
        <time>2015-09-18T16:21:30.59Z</time>
      </trkpt>
      <trkpt lat="44.81867" lon="1.69638">
        <ele>422.214019775</ele>
        <time>2015-09-18T16:21:31.507Z</time>
      </trkpt>
      <trkpt lat="44.81858" lon="1.69639">
        <ele>422.256256104</ele>
        <time>2015-09-18T16:21:39.66Z</time>
      </trkpt>
      <trkpt lat="44.81857" lon="1.69639">
        <ele>422.261749268</ele>
        <time>2015-09-18T16:21:40.592Z</time>
      </trkpt>
      <trkpt lat="44.81849" lon="1.6964">
        <ele>421.268920898</ele>
        <time>2015-09-18T16:21:50.738Z</time>
      </trkpt>
      <trkpt lat="44.81847" lon="1.69639">
        <ele>421.13092041</ele>
        <time>2015-09-18T16:21:51.659Z</time>
      </trkpt>
      <trkpt lat="44.81841" lon="1.69634">
        <ele>420.516113281</ele>
        <time>2015-09-18T16:21:56.771Z</time>
      </trkpt>
      <trkpt lat="44.81839" lon="1.69634">
        <ele>420.396636963</ele>
        <time>2015-09-18T16:21:57.615Z</time>
      </trkpt>
      <trkpt lat="44.81831" lon="1.69634">
        <ele>420.173583984</ele>
        <time>2015-09-18T16:22:04.71Z</time>
      </trkpt>
      <trkpt lat="44.8183" lon="1.69633">
        <ele>420.161987305</ele>
        <time>2015-09-18T16:22:05.621Z</time>
      </trkpt>
      <trkpt lat="44.81821" lon="1.69632">
        <ele>420.071044922</ele>
        <time>2015-09-18T16:22:19.821Z</time>
      </trkpt>
      <trkpt lat="44.81821" lon="1.69632">
        <ele>420.054962158</ele>
        <time>2015-09-18T16:22:20.703Z</time>
      </trkpt>
      <trkpt lat="44.81813" lon="1.69627">
        <ele>418.946777344</ele>
        <time>2015-09-18T16:22:29.791Z</time>
      </trkpt>
      <trkpt lat="44.81813" lon="1.69626">
        <ele>418.784393311</ele>
        <time>2015-09-18T16:22:30.786Z</time>
      </trkpt>
      <trkpt lat="44.81805" lon="1.69624">
        <ele>417.89755249</ele>
        <time>2015-09-18T16:22:38.884Z</time>
      </trkpt>
      <trkpt lat="44.81803" lon="1.69624">
        <ele>417.908935547</ele>
        <time>2015-09-18T16:22:39.752Z</time>
      </trkpt>
      <trkpt lat="44.81795" lon="1.69623">
        <ele>417.843200684</ele>
        <time>2015-09-18T16:22:46.829Z</time>
      </trkpt>
      <trkpt lat="44.81794" lon="1.69622">
        <ele>417.861755371</ele>
        <time>2015-09-18T16:22:47.798Z</time>
      </trkpt>
      <trkpt lat="44.81785" lon="1.69619">
        <ele>417.530731201</ele>
        <time>2015-09-18T16:23:03.826Z</time>
      </trkpt>
      <trkpt lat="44.81784" lon="1.69619">
        <ele>417.490264893</ele>
        <time>2015-09-18T16:23:04.755Z</time>
      </trkpt>
      <trkpt lat="44.81777" lon="1.69616">
        <ele>417.062988281</ele>
        <time>2015-09-18T16:23:20.424Z</time>
      </trkpt>
      <trkpt lat="44.81775" lon="1.69616">
        <ele>416.984802246</ele>
        <time>2015-09-18T16:23:20.72Z</time>
      </trkpt>
      <trkpt lat="44.81767" lon="1.69614">
        <ele>416.691589355</ele>
        <time>2015-09-18T16:23:26.833Z</time>
      </trkpt>
      <trkpt lat="44.81766" lon="1.69613">
        <ele>416.636535645</ele>
        <time>2015-09-18T16:23:27.771Z</time>
      </trkpt>
      <trkpt lat="44.81758" lon="1.69617">
        <ele>416.05670166</ele>
        <time>2015-09-18T16:23:35.819Z</time>
      </trkpt>
      <trkpt lat="44.81757" lon="1.69617">
        <ele>415.902801514</ele>
        <time>2015-09-18T16:23:36.8Z</time>
      </trkpt>
      <trkpt lat="44.81749" lon="1.69623">
        <ele>414.997619629</ele>
        <time>2015-09-18T16:23:47.825Z</time>
      </trkpt>
      <trkpt lat="44.81748" lon="1.69623">
        <ele>414.955505371</ele>
        <time>2015-09-18T16:23:48.801Z</time>
      </trkpt>
      <trkpt lat="44.8174" lon="1.69621">
        <ele>414.846923828</ele>
        <time>2015-09-18T16:23:58.827Z</time>
      </trkpt>
      <trkpt lat="44.81739" lon="1.69622">
        <ele>414.822692871</ele>
        <time>2015-09-18T16:23:59.756Z</time>
      </trkpt>
      <trkpt lat="44.81739" lon="1.69622">
        <ele>414.822692871</ele>
        <time>2015-09-18T16:23:59.872Z</time>
      </trkpt>
      <trkpt lat="44.81719" lon="1.69638">
        <ele>412.939361572</ele>
        <time>2015-09-18T16:24:20.82Z</time>
      </trkpt>
      <trkpt lat="44.81712" lon="1.69644">
        <ele>411.856201172</ele>
        <time>2015-09-18T16:24:29.824Z</time>
      </trkpt>
      <trkpt lat="44.81711" lon="1.69644">
        <ele>411.748657227</ele>
        <time>2015-09-18T16:24:30.765Z</time>
      </trkpt>
      <trkpt lat="44.81704" lon="1.69651">
        <ele>411.457946777</ele>
        <time>2015-09-18T16:24:37.852Z</time>
      </trkpt>
      <trkpt lat="44.81703" lon="1.69652">
        <ele>411.419769287</ele>
        <time>2015-09-18T16:24:38.762Z</time>
      </trkpt>
      <trkpt lat="44.81695" lon="1.69656">
        <ele>410.747589111</ele>
        <time>2015-09-18T16:24:47.777Z</time>
      </trkpt>
      <trkpt lat="44.81694" lon="1.69657">
        <ele>410.560638428</ele>
        <time>2015-09-18T16:24:48.762Z</time>
      </trkpt>
      <trkpt lat="44.81685" lon="1.69661">
        <ele>409.057769775</ele>
        <time>2015-09-18T16:25:03.823Z</time>
      </trkpt>
      <trkpt lat="44.81685" lon="1.69661">
        <ele>408.911193848</ele>
        <time>2015-09-18T16:25:04.711Z</time>
      </trkpt>
      <trkpt lat="44.81677" lon="1.69663">
        <ele>407.943847656</ele>
        <time>2015-09-18T16:25:15.772Z</time>
      </trkpt>
      <trkpt lat="44.81676" lon="1.69664">
        <ele>407.896514893</ele>
        <time>2015-09-18T16:25:16.768Z</time>
      </trkpt>
      <trkpt lat="44.81668" lon="1.69669">
        <ele>407.509674072</ele>
        <time>2015-09-18T16:25:23.843Z</time>
      </trkpt>
      <trkpt lat="44.81668" lon="1.69671">
        <ele>407.329528809</ele>
        <time>2015-09-18T16:25:24.708Z</time>
      </trkpt>
      <trkpt lat="44.81659" lon="1.69674">
        <ele>406.464874268</ele>
        <time>2015-09-18T16:25:41.823Z</time>
      </trkpt>
      <trkpt lat="44.81657" lon="1.69675">
        <ele>406.500518799</ele>
        <time>2015-09-18T16:25:42.777Z</time>
      </trkpt>
      <trkpt lat="44.81649" lon="1.6968">
        <ele>406.509368896</ele>
        <time>2015-09-18T16:25:49.828Z</time>
      </trkpt>
      <trkpt lat="44.81648" lon="1.69682">
        <ele>406.606689453</ele>
        <time>2015-09-18T16:25:50.761Z</time>
      </trkpt>
      <trkpt lat="44.81642" lon="1.69688">
        <ele>407.093200684</ele>
        <time>2015-09-18T16:25:56.823Z</time>
      </trkpt>
      <trkpt lat="44.8164" lon="1.6969">
        <ele>407.106994629</ele>
        <time>2015-09-18T16:25:57.757Z</time>
      </trkpt>
      <trkpt lat="44.81633" lon="1.69693">
        <ele>407.356872559</ele>
        <time>2015-09-18T16:26:05.822Z</time>
      </trkpt>
      <trkpt lat="44.81631" lon="1.69694">
        <ele>407.391967773</ele>
        <time>2015-09-18T16:26:06.755Z</time>
      </trkpt>
      <trkpt lat="44.81623" lon="1.69696">
        <ele>407.683868408</ele>
        <time>2015-09-18T16:26:14.82Z</time>
      </trkpt>
      <trkpt lat="44.81621" lon="1.69697">
        <ele>407.710205078</ele>
        <time>2015-09-18T16:26:15.759Z</time>
      </trkpt>
      <trkpt lat="44.81613" lon="1.69697">
        <ele>407.747528076</ele>
        <time>2015-09-18T16:26:24.825Z</time>
      </trkpt>
      <trkpt lat="44.81612" lon="1.69698">
        <ele>407.699371338</ele>
        <time>2015-09-18T16:26:25.765Z</time>
      </trkpt>
      <trkpt lat="44.81603" lon="1.697">
        <ele>407.738372803</ele>
        <time>2015-09-18T16:26:31.769Z</time>
      </trkpt>
      <trkpt lat="44.81602" lon="1.697">
        <ele>407.703796387</ele>
        <time>2015-09-18T16:26:32.776Z</time>
      </trkpt>
      <trkpt lat="44.81594" lon="1.69701">
        <ele>407.702362061</ele>
        <time>2015-09-18T16:26:40.847Z</time>
      </trkpt>
      <trkpt lat="44.81592" lon="1.69703">
        <ele>407.723419189</ele>
        <time>2015-09-18T16:26:41.757Z</time>
      </trkpt>
      <trkpt lat="44.81584" lon="1.69705">
        <ele>407.939971924</ele>
        <time>2015-09-18T16:26:49.828Z</time>
      </trkpt>
      <trkpt lat="44.81583" lon="1.69706">
        <ele>407.980102539</ele>
        <time>2015-09-18T16:26:50.765Z</time>
      </trkpt>
      <trkpt lat="44.81575" lon="1.6971">
        <ele>408.393463135</ele>
        <time>2015-09-18T16:26:57.786Z</time>
      </trkpt>
      <trkpt lat="44.81574" lon="1.69709">
        <ele>408.442230225</ele>
        <time>2015-09-18T16:26:58.758Z</time>
      </trkpt>
      <trkpt lat="44.81567" lon="1.69714">
        <ele>408.721405029</ele>
        <time>2015-09-18T16:27:05.827Z</time>
      </trkpt>
      <trkpt lat="44.81566" lon="1.69715">
        <ele>408.729797363</ele>
        <time>2015-09-18T16:27:06.758Z</time>
      </trkpt>
      <trkpt lat="44.81558" lon="1.69719">
        <ele>408.608703613</ele>
        <time>2015-09-18T16:27:13.886Z</time>
      </trkpt>
      <trkpt lat="44.81557" lon="1.6972">
        <ele>408.562866211</ele>
        <time>2015-09-18T16:27:14.782Z</time>
      </trkpt>
      <trkpt lat="44.81548" lon="1.69724">
        <ele>408.393188477</ele>
        <time>2015-09-18T16:27:20.95Z</time>
      </trkpt>
      <trkpt lat="44.81547" lon="1.69724">
        <ele>408.357666016</ele>
        <time>2015-09-18T16:27:21.758Z</time>
      </trkpt>
      <trkpt lat="44.81539" lon="1.69727">
        <ele>408.656494141</ele>
        <time>2015-09-18T16:27:28.824Z</time>
      </trkpt>
      <trkpt lat="44.81538" lon="1.69727">
        <ele>408.683044434</ele>
        <time>2015-09-18T16:27:29.76Z</time>
      </trkpt>
      <trkpt lat="44.8153" lon="1.6973">
        <ele>409.014465332</ele>
        <time>2015-09-18T16:27:37.874Z</time>
      </trkpt>
      <trkpt lat="44.81528" lon="1.69731">
        <ele>408.998748779</ele>
        <time>2015-09-18T16:27:38.76Z</time>
      </trkpt>
      <trkpt lat="44.8152" lon="1.69734">
        <ele>408.533325195</ele>
        <time>2015-09-18T16:27:47.879Z</time>
      </trkpt>
      <trkpt lat="44.81519" lon="1.69734">
        <ele>408.475372314</ele>
        <time>2015-09-18T16:27:48.769Z</time>
      </trkpt>
      <trkpt lat="44.8151" lon="1.69735">
        <ele>408.143676758</ele>
        <time>2015-09-18T16:27:56.843Z</time>
      </trkpt>
      <trkpt lat="44.81509" lon="1.69736">
        <ele>408.135772705</ele>
        <time>2015-09-18T16:27:57.708Z</time>
      </trkpt>
      <trkpt lat="44.81501" lon="1.69741">
        <ele>407.783721924</ele>
        <time>2015-09-18T16:28:06.824Z</time>
      </trkpt>
      <trkpt lat="44.815" lon="1.69741">
        <ele>407.669586182</ele>
        <time>2015-09-18T16:28:07.757Z</time>
      </trkpt>
      <trkpt lat="44.81492" lon="1.69742">
        <ele>406.981842041</ele>
        <time>2015-09-18T16:28:14.82Z</time>
      </trkpt>
      <trkpt lat="44.81491" lon="1.69742">
        <ele>406.917694092</ele>
        <time>2015-09-18T16:28:15.755Z</time>
      </trkpt>
      <trkpt lat="44.81482" lon="1.69744">
        <ele>406.063690186</ele>
        <time>2015-09-18T16:28:25.17Z</time>
      </trkpt>
      <trkpt lat="44.81482" lon="1.69745">
        <ele>405.942504883</ele>
        <time>2015-09-18T16:28:26.248Z</time>
      </trkpt>
      <trkpt lat="44.81474" lon="1.6975">
        <ele>404.766448975</ele>
        <time>2015-09-18T16:28:38.361Z</time>
      </trkpt>
      <trkpt lat="44.81473" lon="1.6975">
        <ele>404.622741699</ele>
        <time>2015-09-18T16:28:39.251Z</time>
      </trkpt>
      <trkpt lat="44.81464" lon="1.69753">
        <ele>403.24005127</ele>
        <time>2015-09-18T16:28:48.233Z</time>
      </trkpt>
      <trkpt lat="44.81463" lon="1.69754">
        <ele>403.042358398</ele>
        <time>2015-09-18T16:28:49.22Z</time>
      </trkpt>
      <trkpt lat="44.81454" lon="1.69755">
        <ele>401.923187256</ele>
        <time>2015-09-18T16:28:55.37Z</time>
      </trkpt>
      <trkpt lat="44.81453" lon="1.69755">
        <ele>401.825897217</ele>
        <time>2015-09-18T16:28:56.242Z</time>
      </trkpt>
      <trkpt lat="44.81444" lon="1.69754">
        <ele>400.571166992</ele>
        <time>2015-09-18T16:29:05.337Z</time>
      </trkpt>
      <trkpt lat="44.81444" lon="1.69754">
        <ele>400.402099609</ele>
        <time>2015-09-18T16:29:06.236Z</time>
      </trkpt>
      <trkpt lat="44.81435" lon="1.69755">
        <ele>399.140960693</ele>
        <time>2015-09-18T16:29:14.34Z</time>
      </trkpt>
      <trkpt lat="44.81434" lon="1.69755">
        <ele>398.99786377</ele>
        <time>2015-09-18T16:29:15.256Z</time>
      </trkpt>
      <trkpt lat="44.81426" lon="1.69759">
        <ele>398.273101807</ele>
        <time>2015-09-18T16:29:22.318Z</time>
      </trkpt>
      <trkpt lat="44.81425" lon="1.69759">
        <ele>398.208221436</ele>
        <time>2015-09-18T16:29:23.277Z</time>
      </trkpt>
      <trkpt lat="44.81425" lon="1.69747">
        <ele>397.940124512</ele>
        <time>2015-09-18T16:33:01.454Z</time>
      </trkpt>
      <trkpt lat="44.81425" lon="1.69746">
        <ele>397.910308838</ele>
        <time>2015-09-18T16:33:02.064Z</time>
      </trkpt>
      <trkpt lat="44.81418" lon="1.69753">
        <ele>397.319152832</ele>
        <time>2015-09-18T16:34:03.16Z</time>
      </trkpt>
      <trkpt lat="44.81417" lon="1.69753">
        <ele>397.244720459</ele>
        <time>2015-09-18T16:34:04.132Z</time>
      </trkpt>
      <trkpt lat="44.81409" lon="1.69755">
        <ele>396.543212891</ele>
        <time>2015-09-18T16:34:12.239Z</time>
      </trkpt>
      <trkpt lat="44.81408" lon="1.69755">
        <ele>396.497192383</ele>
        <time>2015-09-18T16:34:13.132Z</time>
      </trkpt>
      <trkpt lat="44.814" lon="1.69759">
        <ele>396.101013184</ele>
        <time>2015-09-18T16:34:19.145Z</time>
      </trkpt>
      <trkpt lat="44.81399" lon="1.6976">
        <ele>396.042297363</ele>
        <time>2015-09-18T16:34:20.13Z</time>
      </trkpt>
      <trkpt lat="44.81391" lon="1.69764">
        <ele>395.373443604</ele>
        <time>2015-09-18T16:34:28.314Z</time>
      </trkpt>
      <trkpt lat="44.81389" lon="1.69765">
        <ele>395.312896729</ele>
        <time>2015-09-18T16:34:29.22Z</time>
      </trkpt>
      <trkpt lat="44.81381" lon="1.69764">
        <ele>394.499481201</ele>
        <time>2015-09-18T16:34:39.322Z</time>
      </trkpt>
      <trkpt lat="44.8138" lon="1.69764">
        <ele>394.445129395</ele>
        <time>2015-09-18T16:34:40.221Z</time>
      </trkpt>
      <trkpt lat="44.81372" lon="1.69765">
        <ele>393.479614258</ele>
        <time>2015-09-18T16:34:47.316Z</time>
      </trkpt>
      <trkpt lat="44.81371" lon="1.69765">
        <ele>393.373352051</ele>
        <time>2015-09-18T16:34:48.217Z</time>
      </trkpt>
      <trkpt lat="44.81364" lon="1.69765">
        <ele>391.569549561</ele>
        <time>2015-09-18T16:34:59.264Z</time>
      </trkpt>
      <trkpt lat="44.81362" lon="1.69765">
        <ele>391.344970703</ele>
        <time>2015-09-18T16:35:00.314Z</time>
      </trkpt>
      <trkpt lat="44.81353" lon="1.69767">
        <ele>390.56137085</ele>
        <time>2015-09-18T16:35:04.265Z</time>
      </trkpt>
      <trkpt lat="44.81351" lon="1.69768">
        <ele>390.437561035</ele>
        <time>2015-09-18T16:35:05.221Z</time>
      </trkpt>
      <trkpt lat="44.81343" lon="1.69767">
        <ele>390.148895264</ele>
        <time>2015-09-18T16:35:09.263Z</time>
      </trkpt>
      <trkpt lat="44.81342" lon="1.69768">
        <ele>390.11541748</ele>
        <time>2015-09-18T16:35:10.195Z</time>
      </trkpt>
      <trkpt lat="44.81334" lon="1.69771">
        <ele>390.448486328</ele>
        <time>2015-09-18T16:35:23.305Z</time>
      </trkpt>
      <trkpt lat="44.81333" lon="1.69771">
        <ele>390.415313721</ele>
        <time>2015-09-18T16:35:24.977Z</time>
      </trkpt>
      <trkpt lat="44.81324" lon="1.69769">
        <ele>388.611694336</ele>
        <time>2015-09-18T16:35:33.328Z</time>
      </trkpt>
      <trkpt lat="44.81323" lon="1.69769">
        <ele>388.353057861</ele>
        <time>2015-09-18T16:35:34.205Z</time>
      </trkpt>
      <trkpt lat="44.81315" lon="1.6977">
        <ele>386.639312744</ele>
        <time>2015-09-18T16:35:41.193Z</time>
      </trkpt>
      <trkpt lat="44.81313" lon="1.6977">
        <ele>386.355895996</ele>
        <time>2015-09-18T16:35:42.21Z</time>
      </trkpt>
      <trkpt lat="44.81304" lon="1.69771">
        <ele>384.815368652</ele>
        <time>2015-09-18T16:35:51.286Z</time>
      </trkpt>
      <trkpt lat="44.81302" lon="1.69771">
        <ele>384.678924561</ele>
        <time>2015-09-18T16:35:52.252Z</time>
      </trkpt>
      <trkpt lat="44.81294" lon="1.69774">
        <ele>384.184509277</ele>
        <time>2015-09-18T16:35:57.215Z</time>
      </trkpt>
      <trkpt lat="44.81293" lon="1.69773">
        <ele>384.095672607</ele>
        <time>2015-09-18T16:35:58.21Z</time>
      </trkpt>
      <trkpt lat="44.81284" lon="1.69774">
        <ele>383.867218018</ele>
        <time>2015-09-18T16:36:05.24Z</time>
      </trkpt>
      <trkpt lat="44.81283" lon="1.69774">
        <ele>383.871307373</ele>
        <time>2015-09-18T16:36:06.208Z</time>
      </trkpt>
      <trkpt lat="44.81275" lon="1.69772">
        <ele>383.828399658</ele>
        <time>2015-09-18T16:36:13.327Z</time>
      </trkpt>
      <trkpt lat="44.81274" lon="1.69773">
        <ele>383.796081543</ele>
        <time>2015-09-18T16:36:14.206Z</time>
      </trkpt>
      <trkpt lat="44.81265" lon="1.69775">
        <ele>383.759063721</ele>
        <time>2015-09-18T16:36:20.747Z</time>
      </trkpt>
      <trkpt lat="44.81263" lon="1.69775">
        <ele>383.66003418</ele>
        <time>2015-09-18T16:36:21.791Z</time>
      </trkpt>
      <trkpt lat="44.81256" lon="1.69779">
        <ele>383.151824951</ele>
        <time>2015-09-18T16:36:27.875Z</time>
      </trkpt>
      <trkpt lat="44.81255" lon="1.69779">
        <ele>383.093902588</ele>
        <time>2015-09-18T16:36:28.763Z</time>
      </trkpt>
      <trkpt lat="44.81246" lon="1.69783">
        <ele>382.239074707</ele>
        <time>2015-09-18T16:36:37.937Z</time>
      </trkpt>
      <trkpt lat="44.81246" lon="1.69783">
        <ele>382.167816162</ele>
        <time>2015-09-18T16:36:38.788Z</time>
      </trkpt>
      <trkpt lat="44.81237" lon="1.69782">
        <ele>381.280944824</ele>
        <time>2015-09-18T16:36:47.991Z</time>
      </trkpt>
      <trkpt lat="44.81236" lon="1.69782">
        <ele>381.168518066</ele>
        <time>2015-09-18T16:36:48.728Z</time>
      </trkpt>
      <trkpt lat="44.81228" lon="1.69786">
        <ele>380.197692871</ele>
        <time>2015-09-18T16:36:54.88Z</time>
      </trkpt>
      <trkpt lat="44.81226" lon="1.69786">
        <ele>380.034667969</ele>
        <time>2015-09-18T16:36:55.819Z</time>
      </trkpt>
      <trkpt lat="44.81217" lon="1.69787">
        <ele>378.071472168</ele>
        <time>2015-09-18T16:37:03.978Z</time>
      </trkpt>
      <trkpt lat="44.81216" lon="1.69787">
        <ele>377.898193359</ele>
        <time>2015-09-18T16:37:04.719Z</time>
      </trkpt>
      <trkpt lat="44.81209" lon="1.69786">
        <ele>376.999359131</ele>
        <time>2015-09-18T16:37:10.896Z</time>
      </trkpt>
      <trkpt lat="44.81207" lon="1.69786">
        <ele>376.950836182</ele>
        <time>2015-09-18T16:37:11.794Z</time>
      </trkpt>
      <trkpt lat="44.81199" lon="1.69786">
        <ele>376.378173828</ele>
        <time>2015-09-18T16:37:19.495Z</time>
      </trkpt>
      <trkpt lat="44.81198" lon="1.69785">
        <ele>376.294952393</ele>
        <time>2015-09-18T16:37:19.756Z</time>
      </trkpt>
      <trkpt lat="44.8119" lon="1.69785">
        <ele>375.674072266</ele>
        <time>2015-09-18T16:37:25.899Z</time>
      </trkpt>
      <trkpt lat="44.81188" lon="1.69787">
        <ele>375.620697021</ele>
        <time>2015-09-18T16:37:26.812Z</time>
      </trkpt>
      <trkpt lat="44.8118" lon="1.69787">
        <ele>374.917175293</ele>
        <time>2015-09-18T16:37:35.92Z</time>
      </trkpt>
      <trkpt lat="44.81178" lon="1.69788">
        <ele>374.823791504</ele>
        <time>2015-09-18T16:37:36.739Z</time>
      </trkpt>
      <trkpt lat="44.8117" lon="1.69792">
        <ele>374.155761719</ele>
        <time>2015-09-18T16:37:43.891Z</time>
      </trkpt>
      <trkpt lat="44.81168" lon="1.69792">
        <ele>374.13772583</ele>
        <time>2015-09-18T16:37:44.728Z</time>
      </trkpt>
      <trkpt lat="44.8116" lon="1.6979">
        <ele>373.745727539</ele>
        <time>2015-09-18T16:37:50.938Z</time>
      </trkpt>
      <trkpt lat="44.81159" lon="1.6979">
        <ele>373.613891602</ele>
        <time>2015-09-18T16:37:51.73Z</time>
      </trkpt>
      <trkpt lat="44.81151" lon="1.69795">
        <ele>372.102661133</ele>
        <time>2015-09-18T16:38:01.947Z</time>
      </trkpt>
      <trkpt lat="44.81149" lon="1.69794">
        <ele>371.9921875</ele>
        <time>2015-09-18T16:38:02.717Z</time>
      </trkpt>
      <trkpt lat="44.81141" lon="1.69795">
        <ele>371.394317627</ele>
        <time>2015-09-18T16:38:08.888Z</time>
      </trkpt>
      <trkpt lat="44.8114" lon="1.69795">
        <ele>371.292144775</ele>
        <time>2015-09-18T16:38:09.784Z</time>
      </trkpt>
      <trkpt lat="44.81133" lon="1.69789">
        <ele>370.708679199</ele>
        <time>2015-09-18T16:38:15.892Z</time>
      </trkpt>
      <trkpt lat="44.81132" lon="1.69788">
        <ele>370.618927002</ele>
        <time>2015-09-18T16:38:16.82Z</time>
      </trkpt>
      <trkpt lat="44.81123" lon="1.69788">
        <ele>369.824920654</ele>
        <time>2015-09-18T16:38:25.908Z</time>
      </trkpt>
      <trkpt lat="44.81122" lon="1.69789">
        <ele>369.695495605</ele>
        <time>2015-09-18T16:38:26.822Z</time>
      </trkpt>
      <trkpt lat="44.81114" lon="1.69791">
        <ele>368.563568115</ele>
        <time>2015-09-18T16:38:35.911Z</time>
      </trkpt>
      <trkpt lat="44.81112" lon="1.69791">
        <ele>368.474182129</ele>
        <time>2015-09-18T16:38:36.738Z</time>
      </trkpt>
      <trkpt lat="44.81104" lon="1.69793">
        <ele>367.58102417</ele>
        <time>2015-09-18T16:38:45.481Z</time>
      </trkpt>
      <trkpt lat="44.81102" lon="1.69793">
        <ele>367.46105957</ele>
        <time>2015-09-18T16:38:45.685Z</time>
      </trkpt>
      <trkpt lat="44.81094" lon="1.69796">
        <ele>366.769256592</ele>
        <time>2015-09-18T16:38:51.883Z</time>
      </trkpt>
      <trkpt lat="44.81092" lon="1.69796">
        <ele>366.678375244</ele>
        <time>2015-09-18T16:38:52.817Z</time>
      </trkpt>
      <trkpt lat="44.81084" lon="1.69796">
        <ele>366.32232666</ele>
        <time>2015-09-18T16:39:01.884Z</time>
      </trkpt>
      <trkpt lat="44.81082" lon="1.69796">
        <ele>366.300231934</ele>
        <time>2015-09-18T16:39:02.79Z</time>
      </trkpt>
      <trkpt lat="44.81074" lon="1.69796">
        <ele>366.505310059</ele>
        <time>2015-09-18T16:39:07.883Z</time>
      </trkpt>
      <trkpt lat="44.81073" lon="1.69797">
        <ele>366.601165771</ele>
        <time>2015-09-18T16:39:08.78Z</time>
      </trkpt>
      <trkpt lat="44.81065" lon="1.69799">
        <ele>367.023864746</ele>
        <time>2015-09-18T16:39:16.559Z</time>
      </trkpt>
      <trkpt lat="44.81064" lon="1.698">
        <ele>367.094024658</ele>
        <time>2015-09-18T16:39:16.753Z</time>
      </trkpt>
      <trkpt lat="44.81056" lon="1.69803">
        <ele>367.248138428</ele>
        <time>2015-09-18T16:39:24.845Z</time>
      </trkpt>
      <trkpt lat="44.81054" lon="1.69804">
        <ele>367.24017334</ele>
        <time>2015-09-18T16:39:25.791Z</time>
      </trkpt>
      <trkpt lat="44.81046" lon="1.69806">
        <ele>367.157958984</ele>
        <time>2015-09-18T16:39:31.984Z</time>
      </trkpt>
      <trkpt lat="44.81044" lon="1.69806">
        <ele>367.152770996</ele>
        <time>2015-09-18T16:39:32.752Z</time>
      </trkpt>
      <trkpt lat="44.81036" lon="1.69805">
        <ele>367.157897949</ele>
        <time>2015-09-18T16:39:38.928Z</time>
      </trkpt>
      <trkpt lat="44.81035" lon="1.69806">
        <ele>367.043121338</ele>
        <time>2015-09-18T16:39:39.784Z</time>
      </trkpt>
      <trkpt lat="44.81026" lon="1.69807">
        <ele>366.830627441</ele>
        <time>2015-09-18T16:39:48.412Z</time>
      </trkpt>
      <trkpt lat="44.81025" lon="1.69807">
        <ele>366.823394775</ele>
        <time>2015-09-18T16:39:48.724Z</time>
      </trkpt>
      <trkpt lat="44.81016" lon="1.69807">
        <ele>366.712249756</ele>
        <time>2015-09-18T16:39:56.906Z</time>
      </trkpt>
      <trkpt lat="44.81015" lon="1.69808">
        <ele>366.6980896</ele>
        <time>2015-09-18T16:39:57.777Z</time>
      </trkpt>
      <trkpt lat="44.81007" lon="1.69809">
        <ele>366.54083252</ele>
        <time>2015-09-18T16:40:04.873Z</time>
      </trkpt>
      <trkpt lat="44.81006" lon="1.6981">
        <ele>366.517547607</ele>
        <time>2015-09-18T16:40:05.765Z</time>
      </trkpt>
      <trkpt lat="44.80998" lon="1.69809">
        <ele>366.54208374</ele>
        <time>2015-09-18T16:40:12.886Z</time>
      </trkpt>
      <trkpt lat="44.80996" lon="1.6981">
        <ele>366.489868164</ele>
        <time>2015-09-18T16:40:13.788Z</time>
      </trkpt>
      <trkpt lat="44.80987" lon="1.69811">
        <ele>366.205749512</ele>
        <time>2015-09-18T16:40:21.93Z</time>
      </trkpt>
      <trkpt lat="44.80986" lon="1.69811">
        <ele>366.121520996</ele>
        <time>2015-09-18T16:40:22.767Z</time>
      </trkpt>
      <trkpt lat="44.80978" lon="1.69813">
        <ele>365.798309326</ele>
        <time>2015-09-18T16:40:31.882Z</time>
      </trkpt>
      <trkpt lat="44.80976" lon="1.69813">
        <ele>365.648864746</ele>
        <time>2015-09-18T16:40:32.765Z</time>
      </trkpt>
      <trkpt lat="44.80968" lon="1.69816">
        <ele>364.732666016</ele>
        <time>2015-09-18T16:40:40.958Z</time>
      </trkpt>
      <trkpt lat="44.80967" lon="1.69815">
        <ele>364.657196045</ele>
        <time>2015-09-18T16:40:41.527Z</time>
      </trkpt>
      <trkpt lat="44.80959" lon="1.69817">
        <ele>364.085296631</ele>
        <time>2015-09-18T16:40:48.616Z</time>
      </trkpt>
      <trkpt lat="44.80958" lon="1.69817">
        <ele>364.024017334</ele>
        <time>2015-09-18T16:40:49.61Z</time>
      </trkpt>
      <trkpt lat="44.8095" lon="1.6982">
        <ele>363.270355225</ele>
        <time>2015-09-18T16:40:57.815Z</time>
      </trkpt>
      <trkpt lat="44.80949" lon="1.69821">
        <ele>363.178833008</ele>
        <time>2015-09-18T16:40:58.895Z</time>
      </trkpt>
      <trkpt lat="44.80941" lon="1.69824">
        <ele>362.407928467</ele>
        <time>2015-09-18T16:41:05.975Z</time>
      </trkpt>
      <trkpt lat="44.8094" lon="1.69824">
        <ele>362.3019104</ele>
        <time>2015-09-18T16:41:07.101Z</time>
      </trkpt>
      <trkpt lat="44.80933" lon="1.69826">
        <ele>361.824890137</ele>
        <time>2015-09-18T16:41:11.974Z</time>
      </trkpt>
      <trkpt lat="44.80931" lon="1.69826">
        <ele>361.778076172</ele>
        <time>2015-09-18T16:41:12.874Z</time>
      </trkpt>
      <trkpt lat="44.80924" lon="1.69834">
        <ele>361.031463623</ele>
        <time>2015-09-18T16:41:19.974Z</time>
      </trkpt>
      <trkpt lat="44.80923" lon="1.69836">
        <ele>360.831665039</ele>
        <time>2015-09-18T16:41:20.872Z</time>
      </trkpt>
      <trkpt lat="44.80916" lon="1.6984">
        <ele>359.607635498</ele>
        <time>2015-09-18T16:41:27.891Z</time>
      </trkpt>
      <trkpt lat="44.80914" lon="1.69839">
        <ele>359.365600586</ele>
        <time>2015-09-18T16:41:28.864Z</time>
      </trkpt>
      <trkpt lat="44.80906" lon="1.69842">
        <ele>358.794342041</ele>
        <time>2015-09-18T16:41:34.959Z</time>
      </trkpt>
      <trkpt lat="44.80905" lon="1.69842">
        <ele>358.77746582</ele>
        <time>2015-09-18T16:41:35.869Z</time>
      </trkpt>
      <trkpt lat="44.80896" lon="1.69845">
        <ele>358.30682373</ele>
        <time>2015-09-18T16:41:42.938Z</time>
      </trkpt>
      <trkpt lat="44.80895" lon="1.69846">
        <ele>358.213806152</ele>
        <time>2015-09-18T16:41:43.852Z</time>
      </trkpt>
      <trkpt lat="44.80886" lon="1.69845">
        <ele>357.029663086</ele>
        <time>2015-09-18T16:41:55.003Z</time>
      </trkpt>
      <trkpt lat="44.80885" lon="1.69847">
        <ele>357.034210205</ele>
        <time>2015-09-18T16:41:55.862Z</time>
      </trkpt>
      <trkpt lat="44.80876" lon="1.69851">
        <ele>356.237426758</ele>
        <time>2015-09-18T16:42:06.936Z</time>
      </trkpt>
      <trkpt lat="44.80875" lon="1.69851">
        <ele>356.148986816</ele>
        <time>2015-09-18T16:42:07.855Z</time>
      </trkpt>
      <trkpt lat="44.80866" lon="1.6985">
        <ele>355.170257568</ele>
        <time>2015-09-18T16:42:14.918Z</time>
      </trkpt>
      <trkpt lat="44.80865" lon="1.6985">
        <ele>355.070068359</ele>
        <time>2015-09-18T16:42:15.852Z</time>
      </trkpt>
      <trkpt lat="44.80857" lon="1.69845">
        <ele>354.277832031</ele>
        <time>2015-09-18T16:42:24.918Z</time>
      </trkpt>
      <trkpt lat="44.80856" lon="1.69844">
        <ele>354.264282227</ele>
        <time>2015-09-18T16:42:25.852Z</time>
      </trkpt>
      <trkpt lat="44.80848" lon="1.6984">
        <ele>354.061645508</ele>
        <time>2015-09-18T16:42:30.921Z</time>
      </trkpt>
      <trkpt lat="44.80847" lon="1.69839">
        <ele>353.99319458</ele>
        <time>2015-09-18T16:42:31.84Z</time>
      </trkpt>
      <trkpt lat="44.8084" lon="1.69834">
        <ele>353.253051758</ele>
        <time>2015-09-18T16:42:48.912Z</time>
      </trkpt>
      <trkpt lat="44.80839" lon="1.69832">
        <ele>353.229522705</ele>
        <time>2015-09-18T16:42:49.853Z</time>
      </trkpt>
      <trkpt lat="44.80832" lon="1.69827">
        <ele>352.388946533</ele>
        <time>2015-09-18T16:42:58.997Z</time>
      </trkpt>
      <trkpt lat="44.80831" lon="1.69826">
        <ele>352.259155273</ele>
        <time>2015-09-18T16:42:59.815Z</time>
      </trkpt>
      <trkpt lat="44.80825" lon="1.69817">
        <ele>351.111846924</ele>
        <time>2015-09-18T16:43:13.971Z</time>
      </trkpt>
      <trkpt lat="44.80823" lon="1.69816">
        <ele>350.983337402</ele>
        <time>2015-09-18T16:43:14.887Z</time>
      </trkpt>
      <trkpt lat="44.80817" lon="1.69808">
        <ele>349.757049561</ele>
        <time>2015-09-18T16:43:22.918Z</time>
      </trkpt>
      <trkpt lat="44.80816" lon="1.69808">
        <ele>349.582397461</ele>
        <time>2015-09-18T16:43:23.853Z</time>
      </trkpt>
      <trkpt lat="44.80822" lon="1.69799">
        <ele>348.217468262</ele>
        <time>2015-09-18T16:43:43.918Z</time>
      </trkpt>
      <trkpt lat="44.80823" lon="1.69799">
        <ele>348.195739746</ele>
        <time>2015-09-18T16:43:44.858Z</time>
      </trkpt>
      <trkpt lat="44.80822" lon="1.69786">
        <ele>345.310150146</ele>
        <time>2015-09-18T16:46:24.843Z</time>
      </trkpt>
      <trkpt lat="44.80822" lon="1.69785">
        <ele>345.448272705</ele>
        <time>2015-09-18T16:46:25.789Z</time>
      </trkpt>
      <trkpt lat="44.80816" lon="1.69777">
        <ele>351.467407227</ele>
        <time>2015-09-18T17:08:05.897Z</time>
      </trkpt>
      <trkpt lat="44.80815" lon="1.69777">
        <ele>351.470306396</ele>
        <time>2015-09-18T17:08:06.788Z</time>
      </trkpt>
      <trkpt lat="44.80809" lon="1.69767">
        <ele>351.774291992</ele>
        <time>2015-09-18T17:08:47.904Z</time>
      </trkpt>
      <trkpt lat="44.80809" lon="1.69767">
        <ele>351.724304199</ele>
        <time>2015-09-18T17:08:48.859Z</time>
      </trkpt>
      <trkpt lat="44.80808" lon="1.69754">
        <ele>350.000061035</ele>
        <time>2015-09-18T17:09:00.929Z</time>
      </trkpt>
      <trkpt lat="44.80809" lon="1.69753">
        <ele>349.900939941</ele>
        <time>2015-09-18T17:09:01.846Z</time>
      </trkpt>
      <trkpt lat="44.80809" lon="1.69765">
        <ele>349.586883545</ele>
        <time>2015-09-18T17:10:23.932Z</time>
      </trkpt>
      <trkpt lat="44.80809" lon="1.69766">
        <ele>349.538818359</ele>
        <time>2015-09-18T17:10:24.848Z</time>
      </trkpt>
      <trkpt lat="44.80817" lon="1.69762">
        <ele>348.50994873</ele>
        <time>2015-09-18T17:10:45.931Z</time>
      </trkpt>
      <trkpt lat="44.80818" lon="1.69762">
        <ele>348.497680664</ele>
        <time>2015-09-18T17:10:46.791Z</time>
      </trkpt>
      <trkpt lat="44.80824" lon="1.69769">
        <ele>350.067871094</ele>
        <time>2015-09-18T17:11:17.85Z</time>
      </trkpt>
      <trkpt lat="44.80826" lon="1.69769">
        <ele>350.290496826</ele>
        <time>2015-09-18T17:11:18.869Z</time>
      </trkpt>
      <trkpt lat="44.80822" lon="1.69779">
        <ele>349.555541992</ele>
        <time>2015-09-18T17:12:26.914Z</time>
      </trkpt>
      <trkpt lat="44.80822" lon="1.69781">
        <ele>349.629302979</ele>
        <time>2015-09-18T17:12:27.848Z</time>
      </trkpt>
      <trkpt lat="44.80822" lon="1.69793">
        <ele>350.376678467</ele>
        <time>2015-09-18T17:13:12.911Z</time>
      </trkpt>
      <trkpt lat="44.8082" lon="1.69796">
        <ele>350.320800781</ele>
        <time>2015-09-18T17:13:13.85Z</time>
      </trkpt>
      <trkpt lat="44.80812" lon="1.69799">
        <ele>349.100189209</ele>
        <time>2015-09-18T17:13:55.916Z</time>
      </trkpt>
      <trkpt lat="44.80811" lon="1.69799">
        <ele>349.066741943</ele>
        <time>2015-09-18T17:13:56.848Z</time>
      </trkpt>
      <trkpt lat="44.80803" lon="1.69793">
        <ele>349.19354248</ele>
        <time>2015-09-18T17:14:04.935Z</time>
      </trkpt>
      <trkpt lat="44.80802" lon="1.69792">
        <ele>349.242736816</ele>
        <time>2015-09-18T17:14:05.845Z</time>
      </trkpt>
      <trkpt lat="44.80795" lon="1.69785">
        <ele>349.152893066</ele>
        <time>2015-09-18T17:14:13.931Z</time>
      </trkpt>
      <trkpt lat="44.80794" lon="1.69784">
        <ele>349.094665527</ele>
        <time>2015-09-18T17:14:14.86Z</time>
      </trkpt>
      <trkpt lat="44.80786" lon="1.69778">
        <ele>348.988433838</ele>
        <time>2015-09-18T17:14:21.91Z</time>
      </trkpt>
      <trkpt lat="44.80786" lon="1.69777">
        <ele>349.003540039</ele>
        <time>2015-09-18T17:14:22.846Z</time>
      </trkpt>
      <trkpt lat="44.8078" lon="1.69768">
        <ele>348.847442627</ele>
        <time>2015-09-18T17:14:31.952Z</time>
      </trkpt>
      <trkpt lat="44.80779" lon="1.69767">
        <ele>348.781951904</ele>
        <time>2015-09-18T17:14:32.855Z</time>
      </trkpt>
      <trkpt lat="44.80773" lon="1.69759">
        <ele>347.872406006</ele>
        <time>2015-09-18T17:14:40.92Z</time>
      </trkpt>
      <trkpt lat="44.80772" lon="1.69758">
        <ele>347.762237549</ele>
        <time>2015-09-18T17:14:41.846Z</time>
      </trkpt>
      <trkpt lat="44.80765" lon="1.69752">
        <ele>347.192779541</ele>
        <time>2015-09-18T17:14:47.908Z</time>
      </trkpt>
      <trkpt lat="44.80764" lon="1.69751">
        <ele>347.102996826</ele>
        <time>2015-09-18T17:14:48.897Z</time>
      </trkpt>
      <trkpt lat="44.80757" lon="1.69743">
        <ele>346.608581543</ele>
        <time>2015-09-18T17:14:55.913Z</time>
      </trkpt>
      <trkpt lat="44.80757" lon="1.69742">
        <ele>346.599639893</ele>
        <time>2015-09-18T17:14:56.843Z</time>
      </trkpt>
      <trkpt lat="44.80751" lon="1.69733">
        <ele>346.273620605</ele>
        <time>2015-09-18T17:15:04.922Z</time>
      </trkpt>
      <trkpt lat="44.80751" lon="1.69732">
        <ele>346.211364746</ele>
        <time>2015-09-18T17:15:05.841Z</time>
      </trkpt>
      <trkpt lat="44.80743" lon="1.69726">
        <ele>345.336303711</ele>
        <time>2015-09-18T17:15:13.967Z</time>
      </trkpt>
      <trkpt lat="44.80742" lon="1.69726">
        <ele>345.188934326</ele>
        <time>2015-09-18T17:15:14.772Z</time>
      </trkpt>
      <trkpt lat="44.80736" lon="1.69717">
        <ele>343.312408447</ele>
        <time>2015-09-18T17:15:35.021Z</time>
      </trkpt>
      <trkpt lat="44.80736" lon="1.69716">
        <ele>343.117584229</ele>
        <time>2015-09-18T17:15:35.798Z</time>
      </trkpt>
      <trkpt lat="44.80728" lon="1.69714">
        <ele>342.487365723</ele>
        <time>2015-09-18T17:15:39.926Z</time>
      </trkpt>
      <trkpt lat="44.80725" lon="1.69714">
        <ele>342.337463379</ele>
        <time>2015-09-18T17:15:40.843Z</time>
      </trkpt>
      <trkpt lat="44.80717" lon="1.69709">
        <ele>341.72845459</ele>
        <time>2015-09-18T17:15:46.91Z</time>
      </trkpt>
      <trkpt lat="44.80716" lon="1.69708">
        <ele>341.603088379</ele>
        <time>2015-09-18T17:15:47.845Z</time>
      </trkpt>
      <trkpt lat="44.80711" lon="1.69701">
        <ele>340.790435791</ele>
        <time>2015-09-18T17:15:55.9Z</time>
      </trkpt>
      <trkpt lat="44.80709" lon="1.697">
        <ele>340.697296143</ele>
        <time>2015-09-18T17:15:56.836Z</time>
      </trkpt>
      <trkpt lat="44.80702" lon="1.69696">
        <ele>340.2371521</ele>
        <time>2015-09-18T17:16:01.906Z</time>
      </trkpt>
      <trkpt lat="44.80699" lon="1.69695">
        <ele>340.181854248</ele>
        <time>2015-09-18T17:16:02.847Z</time>
      </trkpt>
      <trkpt lat="44.80693" lon="1.6969">
        <ele>339.672546387</ele>
        <time>2015-09-18T17:16:09.05Z</time>
      </trkpt>
      <trkpt lat="44.80691" lon="1.69689">
        <ele>339.595245361</ele>
        <time>2015-09-18T17:16:09.854Z</time>
      </trkpt>
      <trkpt lat="44.80685" lon="1.69681">
        <ele>339.235748291</ele>
        <time>2015-09-18T17:16:15.909Z</time>
      </trkpt>
      <trkpt lat="44.80685" lon="1.6968">
        <ele>339.201477051</ele>
        <time>2015-09-18T17:16:16.884Z</time>
      </trkpt>
      <trkpt lat="44.80686" lon="1.69667">
        <ele>339.172027588</ele>
        <time>2015-09-18T17:16:25.908Z</time>
      </trkpt>
      <trkpt lat="44.80685" lon="1.69666">
        <ele>339.149505615</ele>
        <time>2015-09-18T17:16:26.861Z</time>
      </trkpt>
      <trkpt lat="44.80686" lon="1.69654">
        <ele>338.585113525</ele>
        <time>2015-09-18T17:16:34.115Z</time>
      </trkpt>
      <trkpt lat="44.80687" lon="1.69653">
        <ele>338.395874023</ele>
        <time>2015-09-18T17:16:34.845Z</time>
      </trkpt>
      <trkpt lat="44.80688" lon="1.69641">
        <ele>337.300323486</ele>
        <time>2015-09-18T17:16:40.913Z</time>
      </trkpt>
      <trkpt lat="44.80688" lon="1.69639">
        <ele>337.133972168</ele>
        <time>2015-09-18T17:16:42.487Z</time>
      </trkpt>
      <trkpt lat="44.80686" lon="1.69627">
        <ele>336.103790283</ele>
        <time>2015-09-18T17:16:51.572Z</time>
      </trkpt>
      <trkpt lat="44.80686" lon="1.69624">
        <ele>336.051544189</ele>
        <time>2015-09-18T17:16:51.796Z</time>
      </trkpt>
      <trkpt lat="44.80689" lon="1.69613">
        <ele>335.310333252</ele>
        <time>2015-09-18T17:17:00.527Z</time>
      </trkpt>
      <trkpt lat="44.80689" lon="1.6961">
        <ele>335.144378662</ele>
        <time>2015-09-18T17:17:00.773Z</time>
      </trkpt>
      <trkpt lat="44.8069" lon="1.69598">
        <ele>334.567657471</ele>
        <time>2015-09-18T17:17:07.929Z</time>
      </trkpt>
      <trkpt lat="44.8069" lon="1.69595">
        <ele>334.531066895</ele>
        <time>2015-09-18T17:17:08.857Z</time>
      </trkpt>
      <trkpt lat="44.80692" lon="1.69584">
        <ele>334.416168213</ele>
        <time>2015-09-18T17:17:15.973Z</time>
      </trkpt>
      <trkpt lat="44.80691" lon="1.69582">
        <ele>334.38458252</ele>
        <time>2015-09-18T17:17:16.845Z</time>
      </trkpt>
      <trkpt lat="44.80686" lon="1.69571">
        <ele>334.177215576</ele>
        <time>2015-09-18T17:17:22.914Z</time>
      </trkpt>
      <trkpt lat="44.80685" lon="1.69569">
        <ele>334.231048584</ele>
        <time>2015-09-18T17:17:23.854Z</time>
      </trkpt>
      <trkpt lat="44.80679" lon="1.69561">
        <ele>334.403839111</ele>
        <time>2015-09-18T17:17:28.948Z</time>
      </trkpt>
      <trkpt lat="44.80678" lon="1.6956">
        <ele>334.48840332</ele>
        <time>2015-09-18T17:17:29.811Z</time>
      </trkpt>
      <trkpt lat="44.8067" lon="1.6956">
        <ele>335.033477783</ele>
        <time>2015-09-18T17:17:35.91Z</time>
      </trkpt>
      <trkpt lat="44.80668" lon="1.69559">
        <ele>335.136474609</ele>
        <time>2015-09-18T17:17:36.844Z</time>
      </trkpt>
      <trkpt lat="44.8066" lon="1.69557">
        <ele>335.69519043</ele>
        <time>2015-09-18T17:17:41.883Z</time>
      </trkpt>
      <trkpt lat="44.80659" lon="1.69557">
        <ele>335.757507324</ele>
        <time>2015-09-18T17:17:42.845Z</time>
      </trkpt>
      <trkpt lat="44.8065" lon="1.69554">
        <ele>336.128143311</ele>
        <time>2015-09-18T17:17:49.914Z</time>
      </trkpt>
      <trkpt lat="44.80649" lon="1.69554">
        <ele>336.161224365</ele>
        <time>2015-09-18T17:17:50.854Z</time>
      </trkpt>
      <trkpt lat="44.80641" lon="1.6955">
        <ele>336.41192627</ele>
        <time>2015-09-18T17:17:58.912Z</time>
      </trkpt>
      <trkpt lat="44.80639" lon="1.69549">
        <ele>336.458618164</ele>
        <time>2015-09-18T17:17:59.874Z</time>
      </trkpt>
      <trkpt lat="44.80631" lon="1.69545">
        <ele>336.853973389</ele>
        <time>2015-09-18T17:18:07.883Z</time>
      </trkpt>
      <trkpt lat="44.8063" lon="1.69544">
        <ele>336.770446777</ele>
        <time>2015-09-18T17:18:08.832Z</time>
      </trkpt>
      <trkpt lat="44.80622" lon="1.69541">
        <ele>336.626373291</ele>
        <time>2015-09-18T17:18:15.945Z</time>
      </trkpt>
      <trkpt lat="44.80619" lon="1.6954">
        <ele>336.72265625</ele>
        <time>2015-09-18T17:18:16.924Z</time>
      </trkpt>
      <trkpt lat="44.8061" lon="1.6954">
        <ele>336.755310059</ele>
        <time>2015-09-18T17:18:24.931Z</time>
      </trkpt>
      <trkpt lat="44.80609" lon="1.69541">
        <ele>336.716766357</ele>
        <time>2015-09-18T17:18:25.904Z</time>
      </trkpt>
      <trkpt lat="44.806" lon="1.69539">
        <ele>336.790649414</ele>
        <time>2015-09-18T17:18:32.919Z</time>
      </trkpt>
      <trkpt lat="44.806" lon="1.69538">
        <ele>336.754150391</ele>
        <time>2015-09-18T17:18:33.808Z</time>
      </trkpt>
      <trkpt lat="44.80591" lon="1.69536">
        <ele>336.860595703</ele>
        <time>2015-09-18T17:18:41.089Z</time>
      </trkpt>
      <trkpt lat="44.8059" lon="1.69535">
        <ele>336.937774658</ele>
        <time>2015-09-18T17:18:41.858Z</time>
      </trkpt>
      <trkpt lat="44.80582" lon="1.69533">
        <ele>333.063995361</ele>
        <time>2015-09-18T17:22:39.917Z</time>
      </trkpt>
      <trkpt lat="44.8058" lon="1.69533">
        <ele>332.873291016</ele>
        <time>2015-09-18T17:22:40.849Z</time>
      </trkpt>
      <trkpt lat="44.80572" lon="1.69531">
        <ele>332.392059326</ele>
        <time>2015-09-18T17:22:47.96Z</time>
      </trkpt>
      <trkpt lat="44.8057" lon="1.69531">
        <ele>332.338806152</ele>
        <time>2015-09-18T17:22:48.845Z</time>
      </trkpt>
      <trkpt lat="44.80562" lon="1.6953">
        <ele>332.000946045</ele>
        <time>2015-09-18T17:22:53.795Z</time>
      </trkpt>
      <trkpt lat="44.80561" lon="1.69531">
        <ele>332.006072998</ele>
        <time>2015-09-18T17:22:54.911Z</time>
      </trkpt>
      <trkpt lat="44.80552" lon="1.6953">
        <ele>332.031219482</ele>
        <time>2015-09-18T17:23:00.931Z</time>
      </trkpt>
      <trkpt lat="44.80551" lon="1.6953">
        <ele>332.059173584</ele>
        <time>2015-09-18T17:23:02.036Z</time>
      </trkpt>
      <trkpt lat="44.80543" lon="1.69528">
        <ele>332.296905518</ele>
        <time>2015-09-18T17:23:08.953Z</time>
      </trkpt>
      <trkpt lat="44.80542" lon="1.69527">
        <ele>332.301971436</ele>
        <time>2015-09-18T17:23:09.852Z</time>
      </trkpt>
      <trkpt lat="44.80537" lon="1.69517">
        <ele>331.893249512</ele>
        <time>2015-09-18T17:23:19.56Z</time>
      </trkpt>
      <trkpt lat="44.80537" lon="1.69514">
        <ele>331.823638916</ele>
        <time>2015-09-18T17:23:19.814Z</time>
      </trkpt>
      <trkpt lat="44.80536" lon="1.6951">
        <ele>331.571746826</ele>
        <time>2015-09-18T17:23:23.918Z</time>
      </trkpt>
      <trkpt lat="44.8053" lon="1.69488">
        <ele>331.493469238</ele>
        <time>2015-09-18T17:23:38.849Z</time>
      </trkpt>
      <trkpt lat="44.80522" lon="1.69489">
        <ele>331.473358154</ele>
        <time>2015-09-18T17:23:56.917Z</time>
      </trkpt>
      <trkpt lat="44.8052" lon="1.69491">
        <ele>331.454681396</ele>
        <time>2015-09-18T17:23:57.851Z</time>
      </trkpt>
      <trkpt lat="44.80517" lon="1.6949">
        <ele>331.316650391</ele>
        <time>2015-09-18T17:24:02.15Z</time>
      </trkpt>
      <trkpt lat="44.8051" lon="1.69491">
        <ele>330.820129395</ele>
        <time>2015-09-18T17:24:08.897Z</time>
      </trkpt>
      <trkpt lat="44.80503" lon="1.695">
        <ele>330.415435791</ele>
        <time>2015-09-18T17:24:21.965Z</time>
      </trkpt>
      <trkpt lat="44.80502" lon="1.69501">
        <ele>330.345397949</ele>
        <time>2015-09-18T17:24:22.926Z</time>
      </trkpt>
      <trkpt lat="44.80498" lon="1.69501">
        <ele>329.690917969</ele>
        <time>2015-09-18T17:24:56.812Z</time>
      </trkpt>
    </trkseg>
  </trk>
</gpx>